Observation data for Sterling City on 07/05/2020      Previous  Date  Next       Current Mesonet Observations  Soil Data  Daily Summary Page  Observations in Plain Language
KSC1 050500Z 09001KT 26/12 A2994 RMK A01 T02600123  RH  042%=      5-min Rain = 0
KSC1 050501Z 09001KT 26/12 A2994 RMK A01 T02580122  RH  043%=      5-min Rain = 0
KSC1 050502Z 08001KT 26/12 A2993 RMK A01 T02570124  RH  044%=      5-min Rain = 0
KSC1 050503Z 07001KT 26/12 A2993 RMK A01 T02550123  RH  044%=      5-min Rain = 0
KSC1 050504Z 06001KT 25/12 A2993 RMK A01 T02540122  RH  044%=      5-min Rain = 0
KSC1 050505Z 05001KT 25/12 A2993 RMK A01 T02530122  RH  044%=      5-min Rain = 0
KSC1 050506Z 04001KT 25/12 A2993 RMK A01 T02520122  RH  044%=      5-min Rain = 0
KSC1 050507Z 04002KT 25/12 A2993 RMK A01 T02510122  RH  044%=      5-min Rain = 0
KSC1 050508Z 04002KT 25/12 A2993 RMK A01 T02510122  RH  044%=      5-min Rain = 0
KSC1 050509Z 03002KT 25/12 A2993 RMK A01 T02510122  RH  044%=      5-min Rain = 0
KSC1 050510Z 03002KT 25/12 A2993 RMK A01 T02510121  RH  044%=      5-min Rain = 0
KSC1 050511Z 03002KT 25/12 A2993 RMK A01 T02510121  RH  044%=      5-min Rain = 0
KSC1 050512Z 03002KT 25/12 A2993 RMK A01 T02510121  RH  044%=      5-min Rain = 0
KSC1 050513Z 04002KT 25/12 A2993 RMK A01 T02510123  RH  045%=      5-min Rain = 0
KSC1 050514Z 04002KT 25/12 A2993 RMK A01 T02490122  RH  045%=      5-min Rain = 0
KSC1 050515Z 04003KT 25/12 A2993 RMK A01 T02490122  RH  045%=      5-min Rain = 0
KSC1 050516Z 04003KT 25/12 A2993 RMK A01 T02490121  RH  045%=      5-min Rain = 0
KSC1 050517Z 05003KT 25/12 A2993 RMK A01 T02500122  RH  045%=      5-min Rain = 0
KSC1 050518Z 05003KT 25/12 A2993 RMK A01 T02500122  RH  045%=      5-min Rain = 0
KSC1 050519Z 06002KT 25/12 A2993 RMK A01 T02500122  RH  045%=      5-min Rain = 0
KSC1 050520Z 05002KT 25/12 A2993 RMK A01 T02500122  RH  045%=      5-min Rain = 0
KSC1 050521Z 05002KT 25/12 A2993 RMK A01 T02510122  RH  045%=      5-min Rain = 0
KSC1 050522Z 05002KT 25/12 A2993 RMK A01 T02520122  RH  044%=      5-min Rain = 0
KSC1 050523Z 06002KT 25/12 A2993 RMK A01 T02520122  RH  044%=      5-min Rain = 0
KSC1 050524Z 06002KT 25/12 A2993 RMK A01 T02530122  RH  044%=      5-min Rain = 0
KSC1 050525Z 06002KT 25/12 A2993 RMK A01 T02530122  RH  044%=      5-min Rain = 0
KSC1 050526Z 06002KT 25/12 A2993 RMK A01 T02540121  RH  044%=      5-min Rain = 0
KSC1 050527Z 06002KT 26/12 A2993 RMK A01 T02550122  RH  044%=      5-min Rain = 0
KSC1 050528Z 06002KT 25/12 A2993 RMK A01 T02540122  RH  044%=      5-min Rain = 0
KSC1 050529Z 06002KT 25/12 A2993 RMK A01 T02540122  RH  044%=      5-min Rain = 0
KSC1 050530Z 07002KT 25/12 A2992 RMK A01 T02530123  RH  044%=      5-min Rain = 0
KSC1 050531Z 07002KT 25/12 A2992 RMK A01 T02520122  RH  044%=      5-min Rain = 0
KSC1 050532Z 07002KT 25/12 A2992 RMK A01 T02510122  RH  045%=      5-min Rain = 0
KSC1 050533Z 07002KT 25/12 A2992 RMK A01 T02500123  RH  045%=      5-min Rain = 0
KSC1 050534Z 06002KT 25/12 A2992 RMK A01 T02480122  RH  045%=      5-min Rain = 0
KSC1 050535Z 06003KT 25/12 A2992 RMK A01 T02480122  RH  045%=      5-min Rain = 0
KSC1 050536Z 05003KT 25/12 A2992 RMK A01 T02480122  RH  045%=      5-min Rain = 0
KSC1 050537Z 05003KT 25/12 A2992 RMK A01 T02470122  RH  046%=      5-min Rain = 0
KSC1 050538Z 05003KT 25/12 A2992 RMK A01 T02460122  RH  046%=      5-min Rain = 0
KSC1 050539Z 05003KT 25/12 A2992 RMK A01 T02460122  RH  046%=      5-min Rain = 0
KSC1 050540Z 06003KT 25/12 A2992 RMK A01 T02460122  RH  046%=      5-min Rain = 0
KSC1 050541Z 06003KT 25/12 A2992 RMK A01 T02460123  RH  046%=      5-min Rain = 0
KSC1 050542Z 06003KT 25/12 A2992 RMK A01 T02460123  RH  046%=      5-min Rain = 0
KSC1 050543Z 06004KT 25/12 A2992 RMK A01 T02460122  RH  046%=      5-min Rain = 0
KSC1 050544Z 06004KT 25/12 A2992 RMK A01 T02480123  RH  046%=      5-min Rain = 0
KSC1 050545Z 06004KT 25/12 A2992 RMK A01 T02490123  RH  045%=      5-min Rain = 0
KSC1 050546Z 06003KT 25/12 A2992 RMK A01 T02500123  RH  045%=      5-min Rain = 0
KSC1 050547Z 05003KT 25/12 A2992 RMK A01 T02510124  RH  045%=      5-min Rain = 0
KSC1 050548Z 05003KT 25/12 A2992 RMK A01 T02510124  RH  045%=      5-min Rain = 0
KSC1 050549Z 05003KT 25/12 A2992 RMK A01 T02510124  RH  045%=      5-min Rain = 0
KSC1 050550Z 06003KT 25/12 A2992 RMK A01 T02510123  RH  045%=      5-min Rain = 0
KSC1 050551Z 06003KT 25/12 A2992 RMK A01 T02510123  RH  045%=      5-min Rain = 0
KSC1 050552Z 06003KT 25/12 A2992 RMK A01 T02500123  RH  045%=      5-min Rain = 0
KSC1 050553Z 06004KT 25/12 A2992 RMK A01 T02510123  RH  045%=      5-min Rain = 0
KSC1 050554Z 07004KT 25/12 A2992 RMK A01 T02510123  RH  045%=      5-min Rain = 0
KSC1 050555Z 07004KT 25/12 A2992 RMK A01 T02510123  RH  045%=      5-min Rain = 0
KSC1 050556Z 06004KT 25/12 A2992 RMK A01 T02510123  RH  045%=      5-min Rain = 0
KSC1 050557Z 06004KT 25/12 A2992 RMK A01 T02510123  RH  045%=      5-min Rain = 0
KSC1 050558Z 06004KT 25/12 A2992 RMK A01 T02500124  RH  045%=      5-min Rain = 0
KSC1 050559Z 05003KT 25/12 A2992 RMK A01 T02490124  RH  045%=      5-min Rain = 0
KSC1 050600Z 05004KT 25/12 A2992 RMK A01 T02480124  RH  046%=      5-min Rain = 0
KSC1 050601Z 06004KT 25/12 A2992 RMK A01 T02480124  RH  046%=      5-min Rain = 0
KSC1 050602Z 06003KT 25/12 A2992 RMK A01 T02470123  RH  046%=      5-min Rain = 0
KSC1 050603Z 06004KT 25/12 A2992 RMK A01 T02460123  RH  046%=      5-min Rain = 0
KSC1 050604Z 07004KT 25/12 A2992 RMK A01 T02460123  RH  046%=      5-min Rain = 0
KSC1 050605Z 07004KT 25/12 A2992 RMK A01 T02460123  RH  046%=      5-min Rain = 0
KSC1 050606Z 07004KT 25/12 A2992 RMK A01 T02460122  RH  046%=      5-min Rain = 0
KSC1 050607Z 07004KT 25/12 A2992 RMK A01 T02460123  RH  046%=      5-min Rain = 0
KSC1 050608Z 08003KT 25/12 A2992 RMK A01 T02460123  RH  046%=      5-min Rain = 0
KSC1 050609Z 08003KT 25/12 A2992 RMK A01 T02460122  RH  046%=      5-min Rain = 0
KSC1 050610Z 08003KT 25/12 A2992 RMK A01 T02470122  RH  046%=      5-min Rain = 0
KSC1 050611Z 08003KT 25/12 A2992 RMK A01 T02470123  RH  046%=      5-min Rain = 0
KSC1 050612Z 08003KT 25/12 A2992 RMK A01 T02470123  RH  046%=      5-min Rain = 0
KSC1 050613Z 08002KT 25/12 A2992 RMK A01 T02470123  RH  046%=      5-min Rain = 0
KSC1 050614Z 09002KT 25/12 A2992 RMK A01 T02460123  RH  046%=      5-min Rain = 0
KSC1 050615Z 10002KT 25/12 A2992 RMK A01 T02460123  RH  046%=      5-min Rain = 0
KSC1 050616Z 09002KT 25/12 A2992 RMK A01 T02450122  RH  046%=      5-min Rain = 0
KSC1 050617Z 07001KT 25/12 A2992 RMK A01 T02450123  RH  046%=      5-min Rain = 0
KSC1 050618Z 06001KT 25/12 A2992 RMK A01 T02460123  RH  046%=      5-min Rain = 0
KSC1 050619Z 07001KT 25/12 A2992 RMK A01 T02460122  RH  046%=      5-min Rain = 0
KSC1 050620Z 07000KT 25/12 A2992 RMK A01 T02450122  RH  046%=      5-min Rain = 0
KSC1 050621Z 00000KT 25/12 A2992 RMK A01 T02460122  RH  046%=      5-min Rain = 0
KSC1 050622Z 00000KT 25/12 A2992 RMK A01 T02460123  RH  046%=      5-min Rain = 0
KSC1 050623Z 00000KT 25/12 A2992 RMK A01 T02450123  RH  047%=      5-min Rain = 0
KSC1 050624Z 14000KT 24/12 A2992 RMK A01 T02430122  RH  047%=      5-min Rain = 0
KSC1 050625Z 01001KT 24/12 A2992 RMK A01 T02420123  RH  047%=      5-min Rain = 0
KSC1 050626Z 35000KT 24/12 A2992 RMK A01 T02400122  RH  048%=      5-min Rain = 0
KSC1 050627Z 35000KT 24/12 A2992 RMK A01 T02380122  RH  048%=      5-min Rain = 0
KSC1 050628Z 00000KT 24/12 A2992 RMK A01 T02370122  RH  048%=      5-min Rain = 0
KSC1 050629Z 04001KT 24/12 A2992 RMK A01 T02360123  RH  049%=      5-min Rain = 0
KSC1 050630Z 02002KT 24/12 A2992 RMK A01 T02350123  RH  049%=      5-min Rain = 0
KSC1 050631Z 03003KT 24/12 A2992 RMK A01 T02350122  RH  049%=      5-min Rain = 0
KSC1 050632Z 04005KT 24/12 A2992 RMK A01 T02350122  RH  049%=      5-min Rain = 0
KSC1 050633Z 05005KT 24/12 A2992 RMK A01 T02350123  RH  049%=      5-min Rain = 0
KSC1 050634Z 06006KT 24/12 A2992 RMK A01 T02350123  RH  049%=      5-min Rain = 0
KSC1 050635Z 07006KT 24/12 A2992 RMK A01 T02370122  RH  048%=      5-min Rain = 0
KSC1 050636Z 07005KT 24/12 A2992 RMK A01 T02390123  RH  048%=      5-min Rain = 0
KSC1 050637Z 07005KT 24/12 A2992 RMK A01 T02400122  RH  048%=      5-min Rain = 0
KSC1 050638Z 08005KT 24/12 A2992 RMK A01 T02420123  RH  047%=      5-min Rain = 0
KSC1 050639Z 09005KT 24/12 A2992 RMK A01 T02430122  RH  047%=      5-min Rain = 0
KSC1 050640Z 09005KT 25/12 A2992 RMK A01 T02450122  RH  046%=      5-min Rain = 0
KSC1 050641Z 09004KT 25/12 A2992 RMK A01 T02460122  RH  046%=      5-min Rain = 0
KSC1 050642Z 10004KT 25/12 A2992 RMK A01 T02460122  RH  046%=      5-min Rain = 0
KSC1 050643Z 12004KT 25/12 A2992 RMK A01 T02470122  RH  046%=      5-min Rain = 0
KSC1 050644Z 13005KT 25/12 A2992 RMK A01 T02460121  RH  046%=      5-min Rain = 0
KSC1 050645Z 12004KT 25/12 A2992 RMK A01 T02470121  RH  045%=      5-min Rain = 0
KSC1 050646Z 12004KT 25/12 A2992 RMK A01 T02470121  RH  045%=      5-min Rain = 0
KSC1 050647Z 12004KT 25/12 A2992 RMK A01 T02480121  RH  045%=      5-min Rain = 0
KSC1 050648Z 12004KT 25/12 A2992 RMK A01 T02490121  RH  045%=      5-min Rain = 0
KSC1 050649Z 12004KT 25/12 A2992 RMK A01 T02490121  RH  045%=      5-min Rain = 0
KSC1 050650Z 13004KT 25/12 A2992 RMK A01 T02500121  RH  045%=      5-min Rain = 0
KSC1 050651Z 13004KT 25/12 A2992 RMK A01 T02510121  RH  044%=      5-min Rain = 0
KSC1 050652Z 14004KT 25/12 A2992 RMK A01 T02510121  RH  044%=      5-min Rain = 0
KSC1 050653Z 15003KT 25/12 A2992 RMK A01 T02520122  RH  044%=      5-min Rain = 0
KSC1 050654Z 15003KT 25/12 A2992 RMK A01 T02510121  RH  044%=      5-min Rain = 0
KSC1 050655Z 14004KT 25/12 A2992 RMK A01 T02500121  RH  044%=      5-min Rain = 0
KSC1 050656Z 14003KT 25/12 A2992 RMK A01 T02500121  RH  044%=      5-min Rain = 0
KSC1 050657Z 13003KT 25/12 A2992 RMK A01 T02500122  RH  045%=      5-min Rain = 0
KSC1 050658Z 11003KT 25/12 A2992 RMK A01 T02490121  RH  045%=      5-min Rain = 0
KSC1 050659Z 10003KT 25/12 A2992 RMK A01 T02480122  RH  045%=      5-min Rain = 0
KSC1 050700Z 11002KT 25/12 A2992 RMK A01 T02480121  RH  045%=      5-min Rain = 0
KSC1 050701Z 13002KT 25/12 A2992 RMK A01 T02480122  RH  045%=      5-min Rain = 0
KSC1 050702Z 14002KT 25/12 A2992 RMK A01 T02490121  RH  045%=      5-min Rain = 0
KSC1 050703Z 13001KT 25/12 A2992 RMK A01 T02480123  RH  045%=      5-min Rain = 0
KSC1 050704Z 02000KT 25/12 A2992 RMK A01 T02460123  RH  046%=      5-min Rain = 0
KSC1 050705Z 01001KT 24/12 A2992 RMK A01 T02440122  RH  046%=      5-min Rain = 0
KSC1 050706Z 02001KT 24/12 A2992 RMK A01 T02440123  RH  047%=      5-min Rain = 0
KSC1 050707Z 04001KT 24/12 A2992 RMK A01 T02430122  RH  047%=      5-min Rain = 0
KSC1 050708Z 04001KT 24/12 A2992 RMK A01 T02420124  RH  048%=      5-min Rain = 0
KSC1 050709Z 04002KT 24/12 A2992 RMK A01 T02400124  RH  048%=      5-min Rain = 0
KSC1 050710Z 05002KT 24/13 A2992 RMK A01 T02380125  RH  049%=      5-min Rain = 0
KSC1 050711Z 06002KT 24/13 A2992 RMK A01 T02360125  RH  050%=      5-min Rain = 0
KSC1 050712Z 04003KT 24/13 A2992 RMK A01 T02350125  RH  050%=      5-min Rain = 0
KSC1 050713Z 05003KT 23/12 A2992 RMK A01 T02340124  RH  050%=      5-min Rain = 0
KSC1 050714Z 05003KT 23/13 A2992 RMK A01 T02340125  RH  050%=      5-min Rain = 0
KSC1 050715Z 06003KT 23/12 A2992 RMK A01 T02330123  RH  050%=      5-min Rain = 0
KSC1 050716Z 08002KT 23/12 A2992 RMK A01 T02330124  RH  050%=      5-min Rain = 0
KSC1 050717Z 08002KT 23/13 A2992 RMK A01 T02340125  RH  051%=      5-min Rain = 0
KSC1 050718Z 07002KT 23/12 A2992 RMK A01 T02330123  RH  050%=      5-min Rain = 0
KSC1 050719Z 08002KT 24/12 A2992 RMK A01 T02350122  RH  049%=      5-min Rain = 0
KSC1 050720Z 06002KT 24/12 A2992 RMK A01 T02380124  RH  049%=      5-min Rain = 0
KSC1 050721Z 06003KT 24/13 A2992 RMK A01 T02390125  RH  049%=      5-min Rain = 0
KSC1 050722Z 05003KT 24/13 A2992 RMK A01 T02380125  RH  049%=      5-min Rain = 0
KSC1 050723Z 05003KT 24/12 A2992 RMK A01 T02370124  RH  049%=      5-min Rain = 0
KSC1 050724Z 05003KT 24/12 A2992 RMK A01 T02350123  RH  049%=      5-min Rain = 0
KSC1 050725Z 05003KT 23/12 A2993 RMK A01 T02330124  RH  050%=      5-min Rain = 0
KSC1 050726Z 05003KT 23/12 A2993 RMK A01 T02310124  RH  051%=      5-min Rain = 0
KSC1 050727Z 04003KT 23/12 A2993 RMK A01 T02290124  RH  051%=      5-min Rain = 0
KSC1 050728Z 04003KT 23/12 A2993 RMK A01 T02280123  RH  052%=      5-min Rain = 0
KSC1 050729Z 04004KT 23/12 A2993 RMK A01 T02280124  RH  052%=      5-min Rain = 0
KSC1 050730Z 04003KT 23/12 A2993 RMK A01 T02280124  RH  052%=      5-min Rain = 0
KSC1 050731Z 03003KT 23/12 A2993 RMK A01 T02270123  RH  052%=      5-min Rain = 0
KSC1 050732Z 04002KT 23/12 A2993 RMK A01 T02280123  RH  051%=      5-min Rain = 0
KSC1 050733Z 03003KT 23/12 A2993 RMK A01 T02290122  RH  051%=      5-min Rain = 0
KSC1 050734Z 04002KT 23/12 A2993 RMK A01 T02310122  RH  050%=      5-min Rain = 0
KSC1 050735Z 04003KT 23/12 A2993 RMK A01 T02330122  RH  050%=      5-min Rain = 0
KSC1 050736Z 04002KT 23/12 A2993 RMK A01 T02340122  RH  049%=      5-min Rain = 0
KSC1 050737Z 06002KT 24/12 A2993 RMK A01 T02360122  RH  049%=      5-min Rain = 0
KSC1 050738Z 04001KT 24/12 A2993 RMK A01 T02360123  RH  049%=      5-min Rain = 0
KSC1 050739Z 06002KT 23/12 A2993 RMK A01 T02330122  RH  049%=      5-min Rain = 0
KSC1 050740Z 06002KT 23/12 A2993 RMK A01 T02330121  RH  049%=      5-min Rain = 0
KSC1 050741Z 07002KT 23/12 A2993 RMK A01 T02330121  RH  049%=      5-min Rain = 0
KSC1 050742Z 09002KT 23/12 A2993 RMK A01 T02330122  RH  050%=      5-min Rain = 0
KSC1 050743Z 08002KT 23/12 A2993 RMK A01 T02320122  RH  050%=      5-min Rain = 0
KSC1 050744Z 07002KT 23/12 A2993 RMK A01 T02310123  RH  050%=      5-min Rain = 0
KSC1 050745Z 08002KT 23/12 A2993 RMK A01 T02300122  RH  051%=      5-min Rain = 0
KSC1 050746Z 09000KT 23/12 A2993 RMK A01 T02280123  RH  051%=      5-min Rain = 0
KSC1 050747Z 11001KT 23/12 A2993 RMK A01 T02260123  RH  052%=      5-min Rain = 0
KSC1 050748Z 10001KT 22/12 A2994 RMK A01 T02240123  RH  053%=      5-min Rain = 0
KSC1 050749Z 08001KT 22/12 A2994 RMK A01 T02230123  RH  053%=      5-min Rain = 0
KSC1 050750Z 08000KT 22/12 A2994 RMK A01 T02230122  RH  053%=      5-min Rain = 0
KSC1 050751Z 06000KT 22/12 A2994 RMK A01 T02220123  RH  053%=      5-min Rain = 0
KSC1 050752Z 05001KT 22/12 A2994 RMK A01 T02220123  RH  053%=      5-min Rain = 0
KSC1 050753Z 05001KT 22/12 A2994 RMK A01 T02210123  RH  053%=      5-min Rain = 0
KSC1 050754Z 06001KT 22/12 A2994 RMK A01 T02210123  RH  054%=      5-min Rain = 0
KSC1 050755Z 05002KT 22/12 A2994 RMK A01 T02200122  RH  054%=      5-min Rain = 0
KSC1 050756Z 06003KT 22/12 A2994 RMK A01 T02190122  RH  054%=      5-min Rain = 0
KSC1 050757Z 06003KT 22/12 A2994 RMK A01 T02190123  RH  054%=      5-min Rain = 0
KSC1 050758Z 06002KT 22/12 A2994 RMK A01 T02190124  RH  055%=      5-min Rain = 0
KSC1 050759Z 06002KT 22/12 A2994 RMK A01 T02170123  RH  055%=      5-min Rain = 0
KSC1 050800Z 06002KT 22/12 A2994 RMK A01 T02160122  RH  055%=      5-min Rain = 0
KSC1 050801Z 07002KT 22/12 A2994 RMK A01 T02160122  RH  055%=      5-min Rain = 0
KSC1 050802Z 07002KT 22/12 A2994 RMK A01 T02150123  RH  056%=      5-min Rain = 0
KSC1 050803Z 08002KT 21/12 A2994 RMK A01 T02140123  RH  056%=      5-min Rain = 0
KSC1 050804Z 10002KT 21/12 A2994 RMK A01 T02130123  RH  056%=      5-min Rain = 0
KSC1 050805Z 12002KT 21/12 A2994 RMK A01 T02120123  RH  057%=      5-min Rain = 0
KSC1 050806Z 11001KT 21/12 A2994 RMK A01 T02110123  RH  057%=      5-min Rain = 0
KSC1 050807Z 15001KT 21/12 A2994 RMK A01 T02110123  RH  057%=      5-min Rain = 0
KSC1 050808Z 17000KT 21/12 A2994 RMK A01 T02100123  RH  057%=      5-min Rain = 0
KSC1 050809Z 18001KT 21/12 A2994 RMK A01 T02100123  RH  057%=      5-min Rain = 0
KSC1 050810Z 06000KT 21/12 A2994 RMK A01 T02110122  RH  057%=      5-min Rain = 0
KSC1 050811Z 05000KT 21/12 A2994 RMK A01 T02120123  RH  057%=      5-min Rain = 0
KSC1 050812Z 00000KT 21/12 A2994 RMK A01 T02130123  RH  056%=      5-min Rain = 0
KSC1 050813Z 22000KT 21/12 A2994 RMK A01 T02130123  RH  056%=      5-min Rain = 0
KSC1 050814Z 22001KT 21/12 A2994 RMK A01 T02120123  RH  057%=      5-min Rain = 0
KSC1 050815Z 23001KT 21/12 A2994 RMK A01 T02120123  RH  057%=      5-min Rain = 0
KSC1 050816Z 25001KT 21/12 A2994 RMK A01 T02110122  RH  057%=      5-min Rain = 0
KSC1 050817Z 25001KT 21/12 A2994 RMK A01 T02110123  RH  057%=      5-min Rain = 0
KSC1 050818Z 24000KT 21/12 A2994 RMK A01 T02100123  RH  057%=      5-min Rain = 0
KSC1 050819Z 00000KT 21/12 A2994 RMK A01 T02100123  RH  057%=      5-min Rain = 0
KSC1 050820Z 00000KT 21/12 A2994 RMK A01 T02100124  RH  058%=      5-min Rain = 0
KSC1 050821Z 23000KT 21/12 A2994 RMK A01 T02080124  RH  058%=      5-min Rain = 0
KSC1 050822Z 19000KT 21/12 A2994 RMK A01 T02070123  RH  059%=      5-min Rain = 0
KSC1 050823Z 19001KT 21/12 A2994 RMK A01 T02070124  RH  059%=      5-min Rain = 0
KSC1 050824Z 19001KT 21/13 A2994 RMK A01 T02060125  RH  060%=      5-min Rain = 0
KSC1 050825Z 19001KT 21/12 A2994 RMK A01 T02050124  RH  059%=      5-min Rain = 0
KSC1 050826Z 19002KT 21/12 A2994 RMK A01 T02050124  RH  060%=      5-min Rain = 0
KSC1 050827Z 19001KT 21/12 A2994 RMK A01 T02050124  RH  060%=      5-min Rain = 0
KSC1 050828Z 19002KT 21/12 A2994 RMK A01 T02050124  RH  060%=      5-min Rain = 0
KSC1 050829Z 20003KT 21/12 A2994 RMK A01 T02050124  RH  060%=      5-min Rain = 0
KSC1 050830Z 20003KT 21/12 A2994 RMK A01 T02050124  RH  060%=      5-min Rain = 0
KSC1 050831Z 20002KT 21/12 A2995 RMK A01 T02050124  RH  060%=      5-min Rain = 0
KSC1 050832Z 19002KT 21/12 A2995 RMK A01 T02050124  RH  060%=      5-min Rain = 0
KSC1 050833Z 19002KT 21/12 A2995 RMK A01 T02050124  RH  060%=      5-min Rain = 0
KSC1 050834Z 18002KT 21/13 A2995 RMK A01 T02050125  RH  060%=      5-min Rain = 0
KSC1 050835Z 19002KT 21/13 A2995 RMK A01 T02050125  RH  060%=      5-min Rain = 0
KSC1 050836Z 19002KT 21/13 A2995 RMK A01 T02050125  RH  060%=      5-min Rain = 0
KSC1 050837Z 19001KT 21/13 A2995 RMK A01 T02050125  RH  060%=      5-min Rain = 0
KSC1 050838Z 21002KT 21/13 A2995 RMK A01 T02050125  RH  060%=      5-min Rain = 0
KSC1 050839Z 22001KT 21/12 A2995 RMK A01 T02050124  RH  060%=      5-min Rain = 0
KSC1 050840Z 22002KT 21/12 A2995 RMK A01 T02060124  RH  059%=      5-min Rain = 0
KSC1 050841Z 23001KT 21/12 A2995 RMK A01 T02060123  RH  059%=      5-min Rain = 0
KSC1 050842Z 23001KT 21/12 A2995 RMK A01 T02060123  RH  059%=      5-min Rain = 0
KSC1 050843Z 23000KT 21/12 A2995 RMK A01 T02060123  RH  059%=      5-min Rain = 0
KSC1 050844Z 00000KT 21/12 A2995 RMK A01 T02060124  RH  059%=      5-min Rain = 0
KSC1 050845Z 00000KT 21/12 A2995 RMK A01 T02060124  RH  059%=      5-min Rain = 0
KSC1 050846Z 00000KT 21/13 A2995 RMK A01 T02060125  RH  060%=      5-min Rain = 0
KSC1 050847Z 00000KT 21/13 A2995 RMK A01 T02060125  RH  060%=      5-min Rain = 0
KSC1 050848Z 00000KT 21/13 A2995 RMK A01 T02060126  RH  060%=      5-min Rain = 0
KSC1 050849Z 00000KT 21/13 A2995 RMK A01 T02050125  RH  060%=      5-min Rain = 0
KSC1 050850Z 00000KT 20/12 A2995 RMK A01 T02040124  RH  060%=      5-min Rain = 0
KSC1 050851Z 00000KT 20/13 A2995 RMK A01 T02040125  RH  060%=      5-min Rain = 0
KSC1 050852Z 00000KT 20/12 A2995 RMK A01 T02030124  RH  060%=      5-min Rain = 0
KSC1 050853Z 00000KT 20/12 A2995 RMK A01 T02030124  RH  060%=      5-min Rain = 0
KSC1 050854Z 00000KT 20/12 A2995 RMK A01 T02030124  RH  061%=      5-min Rain = 0
KSC1 050855Z 00000KT 20/12 A2995 RMK A01 T02030124  RH  061%=      5-min Rain = 0
KSC1 050856Z 26000KT 20/12 A2995 RMK A01 T02030124  RH  060%=      5-min Rain = 0
KSC1 050857Z 27001KT 20/12 A2995 RMK A01 T02030123  RH  060%=      5-min Rain = 0
KSC1 050858Z 27000KT 20/12 A2995 RMK A01 T02030124  RH  061%=      5-min Rain = 0
KSC1 050859Z 00000KT 20/12 A2995 RMK A01 T02020124  RH  061%=      5-min Rain = 0
KSC1 050900Z 00000KT 20/13 A2995 RMK A01 T02020125  RH  061%=      5-min Rain = 0
KSC1 050901Z 00000KT 20/13 A2995 RMK A01 T02020125  RH  061%=      5-min Rain = 0
KSC1 050902Z 00000KT 20/13 A2995 RMK A01 T02010125  RH  061%=      5-min Rain = 0
KSC1 050903Z 00000KT 20/12 A2995 RMK A01 T02010124  RH  061%=      5-min Rain = 0
KSC1 050904Z 00000KT 20/12 A2995 RMK A01 T02020124  RH  061%=      5-min Rain = 0
KSC1 050905Z 31000KT 20/13 A2995 RMK A01 T02010125  RH  061%=      5-min Rain = 0
KSC1 050906Z 28001KT 20/13 A2995 RMK A01 T02010125  RH  062%=      5-min Rain = 0
KSC1 050907Z 34001KT 20/12 A2995 RMK A01 T02000124  RH  061%=      5-min Rain = 0
KSC1 050908Z 00001KT 20/12 A2995 RMK A01 T02000124  RH  061%=      5-min Rain = 0
KSC1 050909Z 00001KT 20/12 A2995 RMK A01 T02010124  RH  061%=      5-min Rain = 0
KSC1 050910Z 34001KT 20/13 A2995 RMK A01 T02020125  RH  061%=      5-min Rain = 0
KSC1 050911Z 34002KT 20/13 A2995 RMK A01 T02020125  RH  061%=      5-min Rain = 0
KSC1 050912Z 33001KT 20/13 A2995 RMK A01 T02010125  RH  061%=      5-min Rain = 0
KSC1 050913Z 33002KT 20/13 A2995 RMK A01 T02010125  RH  061%=      5-min Rain = 0
KSC1 050914Z 35002KT 20/12 A2995 RMK A01 T02020124  RH  061%=      5-min Rain = 0
KSC1 050915Z 34002KT 20/13 A2995 RMK A01 T02030125  RH  061%=      5-min Rain = 0
KSC1 050916Z 35002KT 20/13 A2995 RMK A01 T02030125  RH  061%=      5-min Rain = 0
KSC1 050917Z 03002KT 20/12 A2995 RMK A01 T02040124  RH  060%=      5-min Rain = 0
KSC1 050918Z 02002KT 21/12 A2995 RMK A01 T02070124  RH  059%=      5-min Rain = 0
KSC1 050919Z 01002KT 21/13 A2995 RMK A01 T02080125  RH  059%=      5-min Rain = 0
KSC1 050920Z 00002KT 21/12 A2995 RMK A01 T02080124  RH  058%=      5-min Rain = 0
KSC1 050921Z 36002KT 21/13 A2995 RMK A01 T02090126  RH  059%=      5-min Rain = 0
KSC1 050922Z 01002KT 21/13 A2995 RMK A01 T02090125  RH  059%=      5-min Rain = 0
KSC1 050923Z 02002KT 21/12 A2995 RMK A01 T02080124  RH  059%=      5-min Rain = 0
KSC1 050924Z 02002KT 21/13 A2995 RMK A01 T02080125  RH  059%=      5-min Rain = 0
KSC1 050925Z 03002KT 21/13 A2996 RMK A01 T02080126  RH  059%=      5-min Rain = 0
KSC1 050926Z 03002KT 21/13 A2996 RMK A01 T02070125  RH  059%=      5-min Rain = 0
KSC1 050927Z 03002KT 21/12 A2996 RMK A01 T02070124  RH  059%=      5-min Rain = 0
KSC1 050928Z 03002KT 21/12 A2996 RMK A01 T02100124  RH  058%=      5-min Rain = 0
KSC1 050929Z 03000KT 21/13 A2996 RMK A01 T02120125  RH  058%=      5-min Rain = 0
KSC1 050930Z 04002KT 21/12 A2996 RMK A01 T02120123  RH  057%=      5-min Rain = 0
KSC1 050931Z 06002KT 22/12 A2996 RMK A01 T02150122  RH  056%=      5-min Rain = 0
KSC1 050932Z 05002KT 22/12 A2996 RMK A01 T02170124  RH  055%=      5-min Rain = 0
KSC1 050933Z 05004KT 22/12 A2996 RMK A01 T02190124  RH  055%=      5-min Rain = 0
KSC1 050934Z 04003KT 22/12 A2996 RMK A01 T02200124  RH  054%=      5-min Rain = 0
KSC1 050935Z 09001KT 22/13 A2996 RMK A01 T02210125  RH  055%=      5-min Rain = 0
KSC1 050936Z 06002KT 22/13 A2996 RMK A01 T02210125  RH  054%=      5-min Rain = 0
KSC1 050937Z 09002KT 22/13 A2996 RMK A01 T02200125  RH  054%=      5-min Rain = 0
KSC1 050938Z 05004KT 22/12 A2996 RMK A01 T02200124  RH  054%=      5-min Rain = 0
KSC1 050939Z 07003KT 22/12 A2996 RMK A01 T02220124  RH  054%=      5-min Rain = 0
KSC1 050940Z 07003KT 22/12 A2996 RMK A01 T02220124  RH  054%=      5-min Rain = 0
KSC1 050941Z 07003KT 22/12 A2996 RMK A01 T02220124  RH  054%=      5-min Rain = 0
KSC1 050942Z 09002KT 22/13 A2996 RMK A01 T02210125  RH  055%=      5-min Rain = 0
KSC1 050943Z 08002KT 22/12 A2996 RMK A01 T02200124  RH  055%=      5-min Rain = 0
KSC1 050944Z 09002KT 22/12 A2996 RMK A01 T02190124  RH  055%=      5-min Rain = 0
KSC1 050945Z 08003KT 22/13 A2996 RMK A01 T02190125  RH  055%=      5-min Rain = 0
KSC1 050946Z 09003KT 22/13 A2996 RMK A01 T02180125  RH  055%=      5-min Rain = 0
KSC1 050947Z 09004KT 22/12 A2996 RMK A01 T02180124  RH  055%=      5-min Rain = 0
KSC1 050948Z 10004KT 22/13 A2996 RMK A01 T02170125  RH  056%=      5-min Rain = 0
KSC1 050949Z 10003KT 22/13 A2996 RMK A01 T02160125  RH  056%=      5-min Rain = 0
KSC1 050950Z 10004KT 22/13 A2996 RMK A01 T02160126  RH  057%=      5-min Rain = 0
KSC1 050951Z 10004KT 22/13 A2996 RMK A01 T02150125  RH  057%=      5-min Rain = 0
KSC1 050952Z 09004KT 22/13 A2996 RMK A01 T02150125  RH  056%=      5-min Rain = 0
KSC1 050953Z 10004KT 22/13 A2996 RMK A01 T02160125  RH  056%=      5-min Rain = 0
KSC1 050954Z 09003KT 22/13 A2996 RMK A01 T02170125  RH  056%=      5-min Rain = 0
KSC1 050955Z 09004KT 22/13 A2996 RMK A01 T02170125  RH  056%=      5-min Rain = 0
KSC1 050956Z 09003KT 22/13 A2996 RMK A01 T02180125  RH  055%=      5-min Rain = 0
KSC1 050957Z 08002KT 22/13 A2995 RMK A01 T02190126  RH  055%=      5-min Rain = 0
KSC1 050958Z 07002KT 22/13 A2995 RMK A01 T02180126  RH  056%=      5-min Rain = 0
KSC1 050959Z 08002KT 22/13 A2995 RMK A01 T02180126  RH  056%=      5-min Rain = 0
KSC1 051000Z 06002KT 22/13 A2995 RMK A01 T02160127  RH  057%=      5-min Rain = 0
KSC1 051001Z 05002KT 22/13 A2995 RMK A01 T02150126  RH  057%=      5-min Rain = 0
KSC1 051002Z 04001KT 21/13 A2995 RMK A01 T02140126  RH  057%=      5-min Rain = 0
KSC1 051003Z 02002KT 21/13 A2995 RMK A01 T02120126  RH  058%=      5-min Rain = 0
KSC1 051004Z 02001KT 21/13 A2995 RMK A01 T02120125  RH  058%=      5-min Rain = 0
KSC1 051005Z 04002KT 21/13 A2995 RMK A01 T02120125  RH  058%=      5-min Rain = 0
KSC1 051006Z 05002KT 21/12 A2995 RMK A01 T02120124  RH  057%=      5-min Rain = 0
KSC1 051007Z 04001KT 21/13 A2995 RMK A01 T02120125  RH  057%=      5-min Rain = 0
KSC1 051008Z 05001KT 21/13 A2995 RMK A01 T02130125  RH  057%=      5-min Rain = 0
KSC1 051009Z 04001KT 21/13 A2995 RMK A01 T02130125  RH  057%=      5-min Rain = 0
KSC1 051010Z 04001KT 21/13 A2995 RMK A01 T02140125  RH  057%=      5-min Rain = 0
KSC1 051011Z 01001KT 21/13 A2995 RMK A01 T02140125  RH  057%=      5-min Rain = 0
KSC1 051012Z 03001KT 21/13 A2995 RMK A01 T02130125  RH  057%=      5-min Rain = 0
KSC1 051013Z 35001KT 21/13 A2995 RMK A01 T02130126  RH  057%=      5-min Rain = 0
KSC1 051014Z 36001KT 21/13 A2995 RMK A01 T02120125  RH  058%=      5-min Rain = 0
KSC1 051015Z 35001KT 21/13 A2995 RMK A01 T02120125  RH  058%=      5-min Rain = 0
KSC1 051016Z 35001KT 21/13 A2995 RMK A01 T02120125  RH  058%=      5-min Rain = 0
KSC1 051017Z 15000KT 21/13 A2995 RMK A01 T02130126  RH  058%=      5-min Rain = 0
KSC1 051018Z 29001KT 22/13 A2995 RMK A01 T02150127  RH  057%=      5-min Rain = 0
KSC1 051019Z 27001KT 22/13 A2995 RMK A01 T02160126  RH  057%=      5-min Rain = 0
KSC1 051020Z 28002KT 22/13 A2995 RMK A01 T02160126  RH  056%=      5-min Rain = 0
KSC1 051021Z 28002KT 22/13 A2995 RMK A01 T02170127  RH  056%=      5-min Rain = 0
KSC1 051022Z 30002KT 22/13 A2995 RMK A01 T02160127  RH  057%=      5-min Rain = 0
KSC1 051023Z 29002KT 22/13 A2995 RMK A01 T02150127  RH  057%=      5-min Rain = 0
KSC1 051024Z 32002KT 22/13 A2995 RMK A01 T02150127  RH  057%=      5-min Rain = 0
KSC1 051025Z 31002KT 21/13 A2995 RMK A01 T02130126  RH  058%=      5-min Rain = 0
KSC1 051026Z 31003KT 21/13 A2995 RMK A01 T02120126  RH  058%=      5-min Rain = 0
KSC1 051027Z 31004KT 21/13 A2996 RMK A01 T02130126  RH  058%=      5-min Rain = 0
KSC1 051028Z 32002KT 22/13 A2996 RMK A01 T02150127  RH  057%=      5-min Rain = 0
KSC1 051029Z 31002KT 22/13 A2996 RMK A01 T02150127  RH  057%=      5-min Rain = 0
KSC1 051030Z 30002KT 22/13 A2996 RMK A01 T02150127  RH  057%=      5-min Rain = 0
KSC1 051031Z 30002KT 22/13 A2996 RMK A01 T02150128  RH  058%=      5-min Rain = 0
KSC1 051032Z 27001KT 22/13 A2996 RMK A01 T02150128  RH  058%=      5-min Rain = 0
KSC1 051033Z 30000KT 22/13 A2996 RMK A01 T02150128  RH  057%=      5-min Rain = 0
KSC1 051034Z 28002KT 22/13 A2996 RMK A01 T02160129  RH  058%=      5-min Rain = 0
KSC1 051035Z 30002KT 22/13 A2996 RMK A01 T02160129  RH  058%=      5-min Rain = 0
KSC1 051036Z 31002KT 22/13 A2996 RMK A01 T02160130  RH  058%=      5-min Rain = 0
KSC1 051037Z 31002KT 22/13 A2996 RMK A01 T02160131  RH  058%=      5-min Rain = 0
KSC1 051038Z 32002KT 22/13 A2996 RMK A01 T02160133  RH  059%=      5-min Rain = 0
KSC1 051039Z 32003KT 22/13 A2996 RMK A01 T02150132  RH  059%=      5-min Rain = 0
KSC1 051040Z 32006KT 22/13 A2997 RMK A01 T02150131  RH  058%=      5-min Rain = 0
KSC1 051041Z 32006KT 22/13 A2997 RMK A01 T02170131  RH  058%=      5-min Rain = 0
KSC1 051042Z 32009KT 22/13 A2997 RMK A01 T02200131  RH  057%=      5-min Rain = 0
KSC1 051043Z 32009KT 23/13 A2997 RMK A01 T02250132  RH  056%=      5-min Rain = 0
KSC1 051044Z 32009KT 23/13 A2998 RMK A01 T02290132  RH  054%=      5-min Rain = 0
KSC1 051045Z 33009KT 23/13 A2998 RMK A01 T02330133  RH  053%=      5-min Rain = 0
KSC1 051046Z 33010KT 24/13 A2998 RMK A01 T02360133  RH  053%=      5-min Rain = 0
KSC1 051047Z 33010KT 24/13 A2998 RMK A01 T02380133  RH  052%=      5-min Rain = 0
KSC1 051048Z 33007KT 24/13 A2998 RMK A01 T02410134  RH  051%=      5-min Rain = 0
KSC1 051049Z 33008KT 24/13 A2998 RMK A01 T02430134  RH  051%=      5-min Rain = 0
KSC1 051050Z 33008KT 24/13 A2998 RMK A01 T02440134  RH  050%=      5-min Rain = 0
KSC1 051051Z 32009KT 25/14 A2998 RMK A01 T02460135  RH  050%=      5-min Rain = 0
KSC1 051052Z 33010KT 25/14 A2998 RMK A01 T02500135  RH  049%=      5-min Rain = 0
KSC1 051053Z 33009KT 25/13 A2998 RMK A01 T02540134  RH  047%=      5-min Rain = 0
KSC1 051054Z 32007KT 26/13 A2998 RMK A01 T02580134  RH  046%=      5-min Rain = 0
KSC1 051055Z 33007KT 26/13 A2998 RMK A01 T02590134  RH  046%=      5-min Rain = 0
KSC1 051056Z 34007KT 26/14 A2998 RMK A01 T02590135  RH  046%=      5-min Rain = 0
KSC1 051057Z 34009KT 26/14 A2998 RMK A01 T02590135  RH  046%=      5-min Rain = 0
KSC1 051058Z 34010KT 26/14 A2998 RMK A01 T02600135  RH  046%=      5-min Rain = 0
KSC1 051059Z 34011KT 26/13 A2998 RMK A01 T02600134  RH  046%=      5-min Rain = 0
KSC1 051100Z 34011KT 26/13 A2998 RMK A01 T02610134  RH  046%=      5-min Rain = 0
KSC1 051101Z 33010KT 26/13 A2998 RMK A01 T02620134  RH  045%=      5-min Rain = 0
KSC1 051102Z 32008KT 26/13 A2999 RMK A01 T02620134  RH  045%=      5-min Rain = 0
KSC1 051103Z 30009KT 26/13 A2999 RMK A01 T02620134  RH  045%=      5-min Rain = 0
KSC1 051104Z 29010KT 26/13 A2999 RMK A01 T02630134  RH  045%=      5-min Rain = 0
KSC1 051105Z 29009KT 26/14 A2999 RMK A01 T02640135  RH  045%=      5-min Rain = 0
KSC1 051106Z 28006KT 26/14 A2999 RMK A01 T02640136  RH  045%=      5-min Rain = 0
KSC1 051107Z 29006KT 26/14 A2999 RMK A01 T02640135  RH  045%=      5-min Rain = 0
KSC1 051108Z 28005KT 26/14 A2999 RMK A01 T02640135  RH  045%=      5-min Rain = 0
KSC1 051109Z 31006KT 26/14 A2999 RMK A01 T02630136  RH  045%=      5-min Rain = 0
KSC1 051110Z 32006KT 26/14 A2999 RMK A01 T02620138  RH  046%=      5-min Rain = 0
KSC1 051111Z 32007KT 26/14 A2999 RMK A01 T02620140  RH  047%=      5-min Rain = 0
KSC1 051112Z 32008KT 26/14 A2999 RMK A01 T02620143  RH  048%=      5-min Rain = 0
KSC1 051113Z 31008KT 26/15 A2999 RMK A01 T02620145  RH  048%=      5-min Rain = 0
KSC1 051114Z 32008KT 26/15 A2999 RMK A01 T02620146  RH  049%=      5-min Rain = 0
KSC1 051115Z 33006KT 26/15 A2999 RMK A01 T02610146  RH  049%=      5-min Rain = 0
KSC1 051116Z 32006KT 26/15 A2999 RMK A01 T02600146  RH  049%=      5-min Rain = 0
KSC1 051117Z 31005KT 26/15 A2999 RMK A01 T02600147  RH  050%=      5-min Rain = 0
KSC1 051118Z 32005KT 26/15 A2999 RMK A01 T02590147  RH  050%=      5-min Rain = 0
KSC1 051119Z 30006KT 26/15 A2999 RMK A01 T02580148  RH  051%=      5-min Rain = 0
KSC1 051120Z 31003KT 26/15 A2999 RMK A01 T02580148  RH  051%=      5-min Rain = 0
KSC1 051121Z 32004KT 26/15 A2999 RMK A01 T02570148  RH  051%=      5-min Rain = 0
KSC1 051122Z 31003KT 26/15 A2999 RMK A01 T02560149  RH  051%=      5-min Rain = 0
KSC1 051123Z 31004KT 26/15 A2999 RMK A01 T02550149  RH  052%=      5-min Rain = 0
KSC1 051124Z 31004KT 25/15 A2999 RMK A01 T02540149  RH  052%=      5-min Rain = 0
KSC1 051125Z 31004KT 25/15 A2999 RMK A01 T02540151  RH  053%=      5-min Rain = 0
KSC1 051126Z 30005KT 25/15 A2999 RMK A01 T02530152  RH  054%=      5-min Rain = 0
KSC1 051127Z 30004KT 25/15 A2999 RMK A01 T02520153  RH  054%=      5-min Rain = 0
KSC1 051128Z 29005KT 25/15 A2999 RMK A01 T02510153  RH  054%=      5-min Rain = 0
KSC1 051129Z 30004KT 25/15 A2999 RMK A01 T02510154  RH  055%=      5-min Rain = 0
KSC1 051130Z 30004KT 25/15 A2999 RMK A01 T02500154  RH  055%=      5-min Rain = 0
KSC1 051131Z 30005KT 25/16 A2999 RMK A01 T02500155  RH  055%=      5-min Rain = 0
KSC1 051132Z 31004KT 25/16 A2999 RMK A01 T02490155  RH  056%=      5-min Rain = 0
KSC1 051133Z 31005KT 25/16 A2999 RMK A01 T02490155  RH  056%=      5-min Rain = 0
KSC1 051134Z 32004KT 25/16 A2999 RMK A01 T02490155  RH  056%=      5-min Rain = 0
KSC1 051135Z 31004KT 25/16 A2999 RMK A01 T02480156  RH  056%=      5-min Rain = 0
KSC1 051136Z 31005KT 25/16 A2999 RMK A01 T02480157  RH  057%=      5-min Rain = 0
KSC1 051137Z 32005KT 25/16 A2999 RMK A01 T02480157  RH  057%=      5-min Rain = 0
KSC1 051138Z 31004KT 25/16 A2999 RMK A01 T02490158  RH  057%=      5-min Rain = 0
KSC1 051139Z 30003KT 25/16 A2999 RMK A01 T02480158  RH  057%=      5-min Rain = 0
KSC1 051140Z 30003KT 25/16 A2999 RMK A01 T02480159  RH  057%=      5-min Rain = 0
KSC1 051141Z 30003KT 25/16 A2999 RMK A01 T02480159  RH  058%=      5-min Rain = 0
KSC1 051142Z 29004KT 25/16 A2999 RMK A01 T02470159  RH  058%=      5-min Rain = 0
KSC1 051143Z 30004KT 25/16 A2999 RMK A01 T02470160  RH  058%=      5-min Rain = 0
KSC1 051144Z 29003KT 25/16 A2999 RMK A01 T02460159  RH  058%=      5-min Rain = 0
KSC1 051145Z 29003KT 25/16 A2999 RMK A01 T02470159  RH  058%=      5-min Rain = 0
KSC1 051146Z 29003KT 25/16 A2999 RMK A01 T02460159  RH  058%=      5-min Rain = 0
KSC1 051147Z 29003KT 25/16 A2999 RMK A01 T02450159  RH  058%=      5-min Rain = 0
KSC1 051148Z 28002KT 25/16 A2999 RMK A01 T02450159  RH  059%=      5-min Rain = 0
KSC1 051149Z 28002KT 24/16 A2999 RMK A01 T02440159  RH  059%=      5-min Rain = 0
KSC1 051150Z 29001KT 24/16 A2999 RMK A01 T02440159  RH  059%=      5-min Rain = 0
KSC1 051151Z 27001KT 24/16 A2999 RMK A01 T02430158  RH  059%=      5-min Rain = 0
KSC1 051152Z 28001KT 24/16 A2999 RMK A01 T02420159  RH  060%=      5-min Rain = 0
KSC1 051153Z 28001KT 24/16 A2999 RMK A01 T02420159  RH  060%=      5-min Rain = 0
KSC1 051154Z 29000KT 24/16 A2999 RMK A01 T02420159  RH  060%=      5-min Rain = 0
KSC1 051155Z 32000KT 24/16 A2999 RMK A01 T02410159  RH  060%=      5-min Rain = 0
KSC1 051156Z 30001KT 24/16 A30 RMK A01 T02410159  RH  060%=      5-min Rain = 0
KSC1 051157Z 29001KT 24/16 A30 RMK A01 T02400158  RH  060%=      5-min Rain = 0
KSC1 051158Z 28002KT 24/16 A30 RMK A01 T02380158  RH  061%=      5-min Rain = 0
KSC1 051159Z 29002KT 24/16 A30 RMK A01 T02370158  RH  062%=      5-min Rain = 0
KSC1 051200Z 29002KT 24/16 A30 RMK A01 T02360160  RH  062%=      5-min Rain = 0
KSC1 051201Z 28001KT 24/16 A30 RMK A01 T02350160  RH  063%=      5-min Rain = 0
KSC1 051202Z 29001KT 24/16 A30 RMK A01 T02360161  RH  063%=      5-min Rain = 0
KSC1 051203Z 32002KT 24/16 A30 RMK A01 T02350160  RH  063%=      5-min Rain = 0
KSC1 051204Z 32002KT 24/16 A30 RMK A01 T02360160  RH  062%=      5-min Rain = 0
KSC1 051205Z 32001KT 24/16 A30 RMK A01 T02350160  RH  063%=      5-min Rain = 0
KSC1 051206Z 34001KT 23/16 A30 RMK A01 T02340158  RH  062%=      5-min Rain = 0
KSC1 051207Z 36002KT 23/16 A30 RMK A01 T02330159  RH  063%=      5-min Rain = 0
KSC1 051208Z 35002KT 23/16 A2999 RMK A01 T02320161  RH  064%=      5-min Rain = 0
KSC1 051209Z 35002KT 23/16 A2999 RMK A01 T02320160  RH  064%=      5-min Rain = 0
KSC1 051210Z 02002KT 23/16 A2999 RMK A01 T02320163  RH  065%=      5-min Rain = 0
KSC1 051211Z 35001KT 23/16 A2999 RMK A01 T02340162  RH  064%=      5-min Rain = 0
KSC1 051212Z 01001KT 23/16 A2999 RMK A01 T02340163  RH  064%=      5-min Rain = 0
KSC1 051213Z 00002KT 24/16 A2999 RMK A01 T02350163  RH  064%=      5-min Rain = 0
KSC1 051214Z 36002KT 24/16 A2999 RMK A01 T02360162  RH  063%=      5-min Rain = 0
KSC1 051215Z 35002KT 24/16 A2999 RMK A01 T02360164  RH  064%=      5-min Rain = 0
KSC1 051216Z 34002KT 24/17 A2999 RMK A01 T02360165  RH  064%=      5-min Rain = 0
KSC1 051217Z 33003KT 24/17 A2999 RMK A01 T02360166  RH  065%=      5-min Rain = 0
KSC1 051218Z 32004KT 24/17 A2999 RMK A01 T02370166  RH  065%=      5-min Rain = 0
KSC1 051219Z 33005KT 24/17 A2999 RMK A01 T02370168  RH  065%=      5-min Rain = 0
KSC1 051220Z 33004KT 24/17 A2999 RMK A01 T02390170  RH  065%=      5-min Rain = 0
KSC1 051221Z 33005KT 24/17 A2999 RMK A01 T02400171  RH  065%=      5-min Rain = 0
KSC1 051222Z 34004KT 24/17 A2999 RMK A01 T02420172  RH  065%=      5-min Rain = 0
KSC1 051223Z 33005KT 24/17 A2999 RMK A01 T02430173  RH  065%=      5-min Rain = 0
KSC1 051224Z 33003KT 25/17 A2999 RMK A01 T02450174  RH  065%=      5-min Rain = 0
KSC1 051225Z 33004KT 25/17 A2999 RMK A01 T02460174  RH  064%=      5-min Rain = 0
KSC1 051226Z 31004KT 25/17 A2999 RMK A01 T02470174  RH  064%=      5-min Rain = 0
KSC1 051227Z 33003KT 25/18 A2999 RMK A01 T02470175  RH  064%=      5-min Rain = 0
KSC1 051228Z 32003KT 25/18 A2999 RMK A01 T02470175  RH  064%=      5-min Rain = 0
KSC1 051229Z 33003KT 25/18 A2999 RMK A01 T02470175  RH  064%=      5-min Rain = 0
KSC1 051230Z 34003KT 25/18 A2999 RMK A01 T02480176  RH  064%=      5-min Rain = 0
KSC1 051231Z 33003KT 25/18 A2999 RMK A01 T02480176  RH  064%=      5-min Rain = 0
KSC1 051232Z 30002KT 25/18 A2999 RMK A01 T02480177  RH  064%=      5-min Rain = 0
KSC1 051233Z 32002KT 25/18 A2999 RMK A01 T02490177  RH  064%=      5-min Rain = 0
KSC1 051234Z 01002KT 25/18 A2999 RMK A01 T02490177  RH  064%=      5-min Rain = 0
KSC1 051235Z 36004KT 25/18 A2999 RMK A01 T02500178  RH  064%=      5-min Rain = 0
KSC1 051236Z 33003KT 25/18 A2999 RMK A01 T02500178  RH  064%=      5-min Rain = 0
KSC1 051237Z 34003KT 25/18 A2999 RMK A01 T02500178  RH  064%=      5-min Rain = 0
KSC1 051238Z 33003KT 25/18 A2999 RMK A01 T02510179  RH  064%=      5-min Rain = 0
KSC1 051239Z 01003KT 25/18 A2999 RMK A01 T02510179  RH  064%=      5-min Rain = 0
KSC1 051240Z 36003KT 25/18 A2999 RMK A01 T02520180  RH  064%=      5-min Rain = 0
KSC1 051241Z 34003KT 25/18 A2999 RMK A01 T02520180  RH  064%=      5-min Rain = 0
KSC1 051242Z 33003KT 25/18 A2999 RMK A01 T02530180  RH  064%=      5-min Rain = 0
KSC1 051243Z 34003KT 25/18 A2999 RMK A01 T02530181  RH  064%=      5-min Rain = 0
KSC1 051244Z 34003KT 25/18 A2999 RMK A01 T02540181  RH  064%=      5-min Rain = 0
KSC1 051245Z 35002KT 25/18 A2999 RMK A01 T02540181  RH  064%=      5-min Rain = 0
KSC1 051246Z 36002KT 25/18 A2999 RMK A01 T02540181  RH  064%=      5-min Rain = 0
KSC1 051247Z 01003KT 25/18 A2999 RMK A01 T02540182  RH  064%=      5-min Rain = 0
KSC1 051248Z 36004KT 25/18 A2999 RMK A01 T02530181  RH  064%=      5-min Rain = 0
KSC1 051249Z 34003KT 25/18 A2999 RMK A01 T02520181  RH  065%=      5-min Rain = 0
KSC1 051250Z 36002KT 25/18 A30 RMK A01 T02520181  RH  065%=      5-min Rain = 0
KSC1 051251Z 36004KT 25/18 A30 RMK A01 T02510181  RH  065%=      5-min Rain = 0
KSC1 051252Z 33005KT 25/18 A30 RMK A01 T02510182  RH  065%=      5-min Rain = 0
KSC1 051253Z 34007KT 25/18 A30 RMK A01 T02510182  RH  065%=      5-min Rain = 0
KSC1 051254Z 34005KT 25/18 A30 RMK A01 T02510181  RH  065%=      5-min Rain = 0
KSC1 051255Z 34005KT 25/18 A30 RMK A01 T02510181  RH  065%=      5-min Rain = 0
KSC1 051256Z 35006KT 25/18 A30 RMK A01 T02510181  RH  065%=      5-min Rain = 0
KSC1 051257Z 36003KT 25/18 A30 RMK A01 T02510181  RH  065%=      5-min Rain = 0
KSC1 051258Z 36003KT 25/18 A30 RMK A01 T02510181  RH  065%=      5-min Rain = 0
KSC1 051259Z 01002KT 25/18 A30 RMK A01 T02510182  RH  065%=      5-min Rain = 0
KSC1 051300Z 36003KT 25/18 A30 RMK A01 T02510182  RH  065%=      5-min Rain = 0
KSC1 051301Z 35003KT 25/18 A30 RMK A01 T02510182  RH  065%=      5-min Rain = 0
KSC1 051302Z 34004KT 25/18 A30 RMK A01 T02510182  RH  065%=      5-min Rain = 0
KSC1 051303Z 36004KT 25/18 A30 RMK A01 T02510182  RH  065%=      5-min Rain = 0
KSC1 051304Z 00006KT 25/18 A30 RMK A01 T02510182  RH  065%=      5-min Rain = 0
KSC1 051305Z 36005KT 25/18 A30 RMK A01 T02510182  RH  065%=      5-min Rain = 0
KSC1 051306Z 36004KT 25/18 A30 RMK A01 T02520182  RH  065%=      5-min Rain = 0
KSC1 051307Z 03003KT 25/18 A30 RMK A01 T02520182  RH  065%=      5-min Rain = 0
KSC1 051308Z 01003KT 25/18 A30 RMK A01 T02510182  RH  065%=      5-min Rain = 0
KSC1 051309Z 02003KT 25/18 A30 RMK A01 T02520183  RH  065%=      5-min Rain = 0
KSC1 051310Z 02001KT 25/18 A30 RMK A01 T02520182  RH  065%=      5-min Rain = 0
KSC1 051311Z 01003KT 25/18 A30 RMK A01 T02520183  RH  066%=      5-min Rain = 0
KSC1 051312Z 04002KT 25/18 A30 RMK A01 T02520183  RH  065%=      5-min Rain = 0
KSC1 051313Z 02002KT 25/18 A30 RMK A01 T02520183  RH  066%=      5-min Rain = 0
KSC1 051314Z 03004KT 25/18 A30 RMK A01 T02530184  RH  066%=      5-min Rain = 0
KSC1 051315Z 02003KT 25/18 A30 RMK A01 T02530183  RH  065%=      5-min Rain = 0
KSC1 051316Z 01003KT 25/18 A30 RMK A01 T02530184  RH  066%=      5-min Rain = 0
KSC1 051317Z 03002KT 25/18 A30 RMK A01 T02530184  RH  066%=      5-min Rain = 0
KSC1 051318Z 02003KT 25/18 A30 RMK A01 T02530184  RH  066%=      5-min Rain = 0
KSC1 051319Z 01002KT 25/18 A30 RMK A01 T02530184  RH  066%=      5-min Rain = 0
KSC1 051320Z 02001KT 25/18 A30 RMK A01 T02530184  RH  066%=      5-min Rain = 0
KSC1 051321Z 03001KT 25/19 A30 RMK A01 T02540185  RH  065%=      5-min Rain = 0
KSC1 051322Z 03003KT 25/19 A30 RMK A01 T02540185  RH  065%=      5-min Rain = 0
KSC1 051323Z 03004KT 26/19 A30 RMK A01 T02550185  RH  065%=      5-min Rain = 0
KSC1 051324Z 07002KT 26/19 A30 RMK A01 T02550185  RH  065%=      5-min Rain = 0
KSC1 051325Z 07002KT 26/19 A2999 RMK A01 T02550185  RH  065%=      5-min Rain = 0
KSC1 051326Z 06003KT 26/19 A2999 RMK A01 T02550185  RH  065%=      5-min Rain = 0
KSC1 051327Z 07002KT 26/19 A2999 RMK A01 T02560185  RH  065%=      5-min Rain = 0
KSC1 051328Z 06003KT 26/18 A2999 RMK A01 T02560184  RH  065%=      5-min Rain = 0
KSC1 051329Z 07002KT 26/18 A2999 RMK A01 T02560184  RH  065%=      5-min Rain = 0
KSC1 051330Z 07003KT 26/19 A2999 RMK A01 T02560185  RH  065%=      5-min Rain = 0
KSC1 051331Z 06004KT 26/19 A2999 RMK A01 T02560185  RH  065%=      5-min Rain = 0
KSC1 051332Z 06003KT 26/18 A2999 RMK A01 T02560184  RH  065%=      5-min Rain = 0
KSC1 051333Z 08004KT 26/19 A2999 RMK A01 T02560185  RH  065%=      5-min Rain = 0
KSC1 051334Z 08004KT 26/19 A2999 RMK A01 T02570185  RH  065%=      5-min Rain = 0
KSC1 051335Z 08004KT 26/19 A2999 RMK A01 T02570185  RH  065%=      5-min Rain = 0
KSC1 051336Z 09004KT 26/19 A2999 RMK A01 T02580186  RH  064%=      5-min Rain = 0
KSC1 051337Z 08004KT 26/19 A2999 RMK A01 T02570185  RH  064%=      5-min Rain = 0
KSC1 051338Z 08003KT 26/19 A2999 RMK A01 T02580186  RH  064%=      5-min Rain = 0
KSC1 051339Z 06003KT 26/19 A2999 RMK A01 T02580186  RH  064%=      5-min Rain = 0
KSC1 051340Z 07003KT 26/19 A2999 RMK A01 T02580186  RH  065%=      5-min Rain = 0
KSC1 051341Z 07003KT 26/19 A2999 RMK A01 T02580186  RH  064%=      5-min Rain = 0
KSC1 051342Z 05003KT 26/19 A2999 RMK A01 T02590186  RH  064%=      5-min Rain = 0
KSC1 051343Z 06003KT 26/19 A2999 RMK A01 T02590186  RH  064%=      5-min Rain = 0
KSC1 051344Z 06004KT 26/19 A2999 RMK A01 T02600186  RH  064%=      5-min Rain = 0
KSC1 051345Z 09003KT 26/19 A2999 RMK A01 T02600186  RH  064%=      5-min Rain = 0
KSC1 051346Z 07003KT 26/19 A2999 RMK A01 T02600187  RH  064%=      5-min Rain = 0
KSC1 051347Z 08003KT 26/19 A2999 RMK A01 T02600187  RH  064%=      5-min Rain = 0
KSC1 051348Z 06003KT 26/19 A2999 RMK A01 T02600187  RH  064%=      5-min Rain = 0
KSC1 051349Z 06004KT 26/19 A2999 RMK A01 T02600186  RH  064%=      5-min Rain = 0
KSC1 051350Z 08003KT 26/19 A2999 RMK A01 T02600186  RH  064%=      5-min Rain = 0
KSC1 051351Z 10004KT 26/19 A2999 RMK A01 T02600187  RH  064%=      5-min Rain = 0
KSC1 051352Z 10003KT 26/19 A2999 RMK A01 T02610187  RH  064%=      5-min Rain = 0
KSC1 051353Z 09004KT 26/19 A2999 RMK A01 T02610186  RH  063%=      5-min Rain = 0
KSC1 051354Z 08004KT 26/19 A2999 RMK A01 T02610187  RH  063%=      5-min Rain = 0
KSC1 051355Z 08003KT 26/19 A2999 RMK A01 T02610187  RH  064%=      5-min Rain = 0
KSC1 051356Z 06003KT 26/19 A2999 RMK A01 T02610188  RH  064%=      5-min Rain = 0
KSC1 051357Z 06004KT 26/19 A2999 RMK A01 T02620187  RH  064%=      5-min Rain = 0
KSC1 051358Z 06004KT 26/19 A2999 RMK A01 T02620187  RH  064%=      5-min Rain = 0
KSC1 051359Z 07003KT 26/19 A2999 RMK A01 T02620187  RH  063%=      5-min Rain = 0
KSC1 051400Z 07003KT 26/19 A2999 RMK A01 T02620188  RH  064%=      5-min Rain = 0
KSC1 051401Z 06005KT 26/19 A2999 RMK A01 T02620188  RH  063%=      5-min Rain = 0
KSC1 051402Z 06006KT 26/19 A2999 RMK A01 T02630187  RH  063%=      5-min Rain = 0
KSC1 051403Z 07005KT 26/19 A2999 RMK A01 T02630187  RH  063%=      5-min Rain = 0
KSC1 051404Z 07004KT 26/19 A2999 RMK A01 T02620187  RH  063%=      5-min Rain = 0
KSC1 051405Z 07005KT 26/19 A2999 RMK A01 T02620187  RH  063%=      5-min Rain = 0
KSC1 051406Z 08005KT 26/19 A2999 RMK A01 T02630187  RH  063%=      5-min Rain = 0
KSC1 051407Z 08006KT 26/19 A2999 RMK A01 T02630187  RH  063%=      5-min Rain = 0
KSC1 051408Z 08005KT 26/19 A2999 RMK A01 T02630187  RH  063%=      5-min Rain = 0
KSC1 051409Z 08006KT 26/19 A2999 RMK A01 T02640188  RH  063%=      5-min Rain = 0
KSC1 051410Z 08004KT 27/19 A2999 RMK A01 T02660188  RH  062%=      5-min Rain = 0
KSC1 051411Z 09005KT 27/19 A2999 RMK A01 T02650188  RH  062%=      5-min Rain = 0
KSC1 051412Z 10005KT 27/19 A2999 RMK A01 T02660189  RH  063%=      5-min Rain = 0
KSC1 051413Z 09005KT 27/19 A2999 RMK A01 T02660188  RH  062%=      5-min Rain = 0
KSC1 051414Z 09004KT 27/19 A2999 RMK A01 T02660188  RH  062%=      5-min Rain = 0
KSC1 051415Z 08004KT 27/19 A2999 RMK A01 T02670189  RH  062%=      5-min Rain = 0
KSC1 051416Z 08005KT 27/19 A2999 RMK A01 T02670188  RH  062%=      5-min Rain = 0
KSC1 051417Z 08005KT 27/19 A2999 RMK A01 T02670188  RH  062%=      5-min Rain = 0
KSC1 051418Z 08005KT 27/19 A2999 RMK A01 T02660188  RH  062%=      5-min Rain = 0
KSC1 051419Z 06006KT 27/19 A2999 RMK A01 T02660188  RH  062%=      5-min Rain = 0
KSC1 051420Z 07005KT 27/19 A2999 RMK A01 T02660188  RH  062%=      5-min Rain = 0
KSC1 051421Z 08005KT 27/19 A2999 RMK A01 T02660188  RH  062%=      5-min Rain = 0
KSC1 051422Z 08004KT 27/19 A2999 RMK A01 T02660188  RH  062%=      5-min Rain = 0
KSC1 051423Z 08005KT 27/19 A2999 RMK A01 T02670188  RH  062%=      5-min Rain = 0
KSC1 051424Z 07004KT 27/19 A2999 RMK A01 T02670188  RH  062%=      5-min Rain = 0
KSC1 051425Z 06004KT 27/19 A30 RMK A01 T02680189  RH  062%=      5-min Rain = 0
KSC1 051426Z 06004KT 27/19 A30 RMK A01 T02680189  RH  062%=      5-min Rain = 0
KSC1 051427Z 04003KT 27/19 A30 RMK A01 T02690189  RH  062%=      5-min Rain = 0
KSC1 051428Z 06004KT 27/19 A30 RMK A01 T02690188  RH  061%=      5-min Rain = 0
KSC1 051429Z 05003KT 27/19 A30 RMK A01 T02690188  RH  061%=      5-min Rain = 0
KSC1 051430Z 05004KT 27/19 A30 RMK A01 T02700188  RH  061%=      5-min Rain = 0
KSC1 051431Z 05004KT 27/19 A30 RMK A01 T02700188  RH  061%=      5-min Rain = 0
KSC1 051432Z 06003KT 27/19 A30 RMK A01 T02700189  RH  061%=      5-min Rain = 0
KSC1 051433Z 05003KT 27/19 A2999 RMK A01 T02710188  RH  061%=      5-min Rain = 0
KSC1 051434Z 05004KT 27/19 A2999 RMK A01 T02710189  RH  061%=      5-min Rain = 0
KSC1 051435Z 05003KT 27/19 A2999 RMK A01 T02720188  RH  060%=      5-min Rain = 0
KSC1 051436Z 07003KT 27/19 A2999 RMK A01 T02720189  RH  060%=      5-min Rain = 0
KSC1 051437Z 08004KT 27/19 A2999 RMK A01 T02720189  RH  060%=      5-min Rain = 0
KSC1 051438Z 08003KT 27/19 A30 RMK A01 T02720188  RH  060%=      5-min Rain = 0
KSC1 051439Z 08003KT 27/19 A30 RMK A01 T02720188  RH  060%=      5-min Rain = 0
KSC1 051440Z 09003KT 27/19 A30 RMK A01 T02720188  RH  060%=      5-min Rain = 0
KSC1 051441Z 07002KT 27/19 A30 RMK A01 T02730188  RH  060%=      5-min Rain = 0
KSC1 051442Z 06003KT 27/19 A2999 RMK A01 T02740187  RH  059%=      5-min Rain = 0
KSC1 051443Z 05002KT 27/19 A2999 RMK A01 T02740188  RH  059%=      5-min Rain = 0
KSC1 051444Z 06003KT 27/19 A2999 RMK A01 T02740188  RH  059%=      5-min Rain = 0
KSC1 051445Z 07004KT 27/19 A2999 RMK A01 T02740189  RH  060%=      5-min Rain = 0
KSC1 051446Z 08005KT 28/19 A2999 RMK A01 T02750188  RH  059%=      5-min Rain = 0
KSC1 051447Z 08005KT 28/19 A2999 RMK A01 T02760187  RH  059%=      5-min Rain = 0
KSC1 051448Z 06004KT 28/19 A2999 RMK A01 T02760187  RH  058%=      5-min Rain = 0
KSC1 051449Z 06005KT 28/19 A2999 RMK A01 T02770187  RH  058%=      5-min Rain = 0
KSC1 051450Z 07004KT 28/19 A2999 RMK A01 T02770187  RH  058%=      5-min Rain = 0
KSC1 051451Z 08004KT 28/19 A2999 RMK A01 T02760187  RH  058%=      5-min Rain = 0
KSC1 051452Z 09002KT 28/19 A2999 RMK A01 T02760188  RH  058%=      5-min Rain = 0
KSC1 051453Z 10003KT 28/19 A2999 RMK A01 T02770188  RH  058%=      5-min Rain = 0
KSC1 051454Z 06003KT 28/19 A2999 RMK A01 T02780187  RH  058%=      5-min Rain = 0
KSC1 051455Z 04004KT 28/19 A2999 RMK A01 T02790188  RH  058%=      5-min Rain = 0
KSC1 051456Z 05004KT 28/19 A2999 RMK A01 T02800188  RH  057%=      5-min Rain = 0
KSC1 051457Z 08002KT 28/19 A2999 RMK A01 T02810188  RH  057%=      5-min Rain = 0
KSC1 051458Z 09003KT 28/19 A2999 RMK A01 T02810188  RH  057%=      5-min Rain = 0
KSC1 051459Z 06004KT 28/19 A2999 RMK A01 T02820188  RH  057%=      5-min Rain = 0
KSC1 051500Z 06005KT 28/19 A2999 RMK A01 T02830188  RH  056%=      5-min Rain = 0
KSC1 051501Z 07005KT 28/19 A2999 RMK A01 T02840187  RH  056%=      5-min Rain = 0
KSC1 051502Z 07005KT 29/19 A2999 RMK A01 T02850187  RH  055%=      5-min Rain = 0
KSC1 051503Z 07006KT 29/19 A2999 RMK A01 T02850186  RH  055%=      5-min Rain = 0
KSC1 051504Z 06005KT 29/19 A2999 RMK A01 T02850186  RH  055%=      5-min Rain = 0
KSC1 051505Z 05005KT 29/19 A2999 RMK A01 T02850186  RH  055%=      5-min Rain = 0
KSC1 051506Z 07004KT 29/19 A2999 RMK A01 T02860186  RH  055%=      5-min Rain = 0
KSC1 051507Z 06005KT 29/19 A2999 RMK A01 T02870187  RH  055%=      5-min Rain = 0
KSC1 051508Z 09005KT 29/19 A2999 RMK A01 T02900188  RH  054%=      5-min Rain = 0
KSC1 051509Z 09005KT 29/19 A2999 RMK A01 T02930188  RH  053%=      5-min Rain = 0
KSC1 051510Z 09006KT 30/19 A2999 RMK A01 T02970188  RH  052%=      5-min Rain = 0
KSC1 051511Z 08005KT 30/19 A2999 RMK A01 T02960187  RH  052%=      5-min Rain = 0
KSC1 051512Z 08004KT 29/19 A2999 RMK A01 T02940187  RH  053%=      5-min Rain = 0
KSC1 051513Z 08003KT 29/19 A2999 RMK A01 T02920188  RH  053%=      5-min Rain = 0
KSC1 051514Z 10003KT 29/19 A2999 RMK A01 T02910188  RH  054%=      5-min Rain = 0
KSC1 051515Z 06006KT 29/19 A2999 RMK A01 T02910187  RH  053%=      5-min Rain = 0
KSC1 051516Z 06006KT 29/19 A2999 RMK A01 T02920187  RH  053%=      5-min Rain = 0
KSC1 051517Z 06006KT 29/19 A2999 RMK A01 T02910187  RH  054%=      5-min Rain = 0
KSC1 051518Z 04004KT 29/19 A2999 RMK A01 T02890187  RH  054%=      5-min Rain = 0
KSC1 051519Z 05005KT 29/19 A2999 RMK A01 T02880186  RH  054%=      5-min Rain = 0
KSC1 051520Z 08005KT 29/19 A2999 RMK A01 T02880185  RH  054%=      5-min Rain = 0
KSC1 051521Z 05006KT 29/19 A2999 RMK A01 T02890186  RH  054%=      5-min Rain = 0
KSC1 051522Z 04004KT 29/19 A2999 RMK A01 T02920187  RH  053%=      5-min Rain = 0
KSC1 051523Z 08006KT 29/19 A2999 RMK A01 T02930187  RH  053%=      5-min Rain = 0
KSC1 051524Z 08005KT 30/18 A2999 RMK A01 T02950184  RH  051%=      5-min Rain = 0
KSC1 051525Z 08005KT 30/18 A2999 RMK A01 T02960182  RH  050%=      5-min Rain = 0
KSC1 051526Z 07004KT 30/18 A2998 RMK A01 T02970184  RH  051%=      5-min Rain = 0
KSC1 051527Z 06004KT 30/19 A2998 RMK A01 T02980185  RH  051%=      5-min Rain = 0
KSC1 051528Z 07004KT 30/19 A2998 RMK A01 T03000185  RH  050%=      5-min Rain = 0
KSC1 051529Z 05004KT 30/19 A2998 RMK A01 T03020185  RH  049%=      5-min Rain = 0
KSC1 051530Z 04003KT 30/19 A2998 RMK A01 T03030186  RH  050%=      5-min Rain = 0
KSC1 051531Z 11004KT 30/19 A2998 RMK A01 T03030187  RH  050%=      5-min Rain = 0
KSC1 051532Z 11003KT 30/18 A2998 RMK A01 T03030184  RH  049%=      5-min Rain = 0
KSC1 051533Z 09004KT 30/18 A2998 RMK A01 T03000184  RH  050%=      5-min Rain = 0
KSC1 051534Z 11004KT 30/18 A2998 RMK A01 T02990183  RH  050%=      5-min Rain = 0
KSC1 051535Z 10002KT 30/18 A2998 RMK A01 T02990180  RH  049%=      5-min Rain = 0
KSC1 051536Z 05004KT 30/18 A2998 RMK A01 T02990180  RH  049%=      5-min Rain = 0
KSC1 051537Z 06005KT 30/18 A2998 RMK A01 T02980183  RH  050%=      5-min Rain = 0
KSC1 051538Z 05004KT 30/18 A2998 RMK A01 T02960183  RH  051%=      5-min Rain = 0
KSC1 051539Z 05003KT 30/18 A2998 RMK A01 T02950183  RH  051%=      5-min Rain = 0
KSC1 051540Z 05002KT 30/18 A2998 RMK A01 T02960181  RH  050%=      5-min Rain = 0
KSC1 051541Z 06004KT 30/18 A2998 RMK A01 T02970181  RH  050%=      5-min Rain = 0
KSC1 051542Z 07005KT 30/18 A2998 RMK A01 T02990180  RH  049%=      5-min Rain = 0
KSC1 051543Z 06005KT 30/18 A2998 RMK A01 T02980179  RH  049%=      5-min Rain = 0
KSC1 051544Z 08004KT 30/18 A2998 RMK A01 T02990178  RH  048%=      5-min Rain = 0
KSC1 051545Z 04005KT 30/18 A2998 RMK A01 T02990180  RH  049%=      5-min Rain = 0
KSC1 051546Z 04003KT 30/18 A2998 RMK A01 T02990181  RH  049%=      5-min Rain = 0
KSC1 051547Z 04005KT 30/18 A2998 RMK A01 T02990179  RH  049%=      5-min Rain = 0
KSC1 051548Z 05005KT 30/18 A2998 RMK A01 T02990178  RH  048%=      5-min Rain = 0
KSC1 051549Z 06005KT 30/18 A2998 RMK A01 T03000179  RH  048%=      5-min Rain = 0
KSC1 051550Z 05005KT 30/18 A2998 RMK A01 T03010178  RH  048%=      5-min Rain = 0
KSC1 051551Z 04004KT 30/18 A2998 RMK A01 T03010176  RH  047%=      5-min Rain = 0
KSC1 051552Z 03004KT 30/18 A2997 RMK A01 T03010180  RH  048%=      5-min Rain = 0
KSC1 051553Z 04003KT 30/18 A2997 RMK A01 T03010181  RH  048%=      5-min Rain = 0
KSC1 051554Z 05003KT 30/18 A2997 RMK A01 T03010181  RH  049%=      5-min Rain = 0
KSC1 051555Z 08005KT 30/18 A2997 RMK A01 T03020183  RH  049%=      5-min Rain = 0
KSC1 051556Z 08005KT 30/18 A2997 RMK A01 T03030178  RH  047%=      5-min Rain = 0
KSC1 051557Z 07006KT 30/18 A2997 RMK A01 T03030176  RH  047%=      5-min Rain = 0
KSC1 051558Z 08006KT 30/18 A2997 RMK A01 T03030176  RH  047%=      5-min Rain = 0
KSC1 051559Z 07006KT 30/18 A2997 RMK A01 T03020176  RH  047%=      5-min Rain = 0
KSC1 051600Z 12005KT 30/18 A2997 RMK A01 T03020176  RH  047%=      5-min Rain = 0
KSC1 051601Z 15006KT 31/17 A2997 RMK A01 T03050170  RH  044%=      5-min Rain = 0
KSC1 051602Z 15004KT 31/17 A2997 RMK A01 T03090166  RH  042%=      5-min Rain = 0
KSC1 051603Z 12003KT 31/17 A2997 RMK A01 T03100166  RH  042%=      5-min Rain = 0
KSC1 051604Z 09004KT 31/17 A2997 RMK A01 T03120170  RH  043%=      5-min Rain = 0
KSC1 051605Z 10006KT 31/17 A2997 RMK A01 T03130174  RH  043%=      5-min Rain = 0
KSC1 051606Z 11005KT 31/17 A2997 RMK A01 T03130171  RH  043%=      5-min Rain = 0
KSC1 051607Z 12005KT 31/17 A2997 RMK A01 T03120170  RH  042%=      5-min Rain = 0
KSC1 051608Z 12004KT 31/17 A2997 RMK A01 T03110169  RH  043%=      5-min Rain = 0
KSC1 051609Z 10003KT 31/17 A2997 RMK A01 T03090169  RH  043%=      5-min Rain = 0
KSC1 051610Z 04002KT 31/17 A2997 RMK A01 T03080170  RH  044%=      5-min Rain = 0
KSC1 051611Z 01002KT 31/17 A2997 RMK A01 T03070171  RH  044%=      5-min Rain = 0
KSC1 051612Z 08003KT 31/17 A2997 RMK A01 T03060171  RH  044%=      5-min Rain = 0
KSC1 051613Z 07005KT 31/17 A2997 RMK A01 T03060172  RH  045%=      5-min Rain = 0
KSC1 051614Z 08005KT 31/17 A2997 RMK A01 T03060172  RH  045%=      5-min Rain = 0
KSC1 051615Z 11004KT 31/17 A2997 RMK A01 T03050171  RH  045%=      5-min Rain = 0
KSC1 051616Z 12004KT 31/17 A2997 RMK A01 T03060170  RH  044%=      5-min Rain = 0
KSC1 051617Z 10004KT 31/17 A2997 RMK A01 T03060171  RH  044%=      5-min Rain = 0
KSC1 051618Z 08005KT 31/17 A2997 RMK A01 T03060172  RH  044%=      5-min Rain = 0
KSC1 051619Z 08004KT 31/17 A2997 RMK A01 T03060171  RH  044%=      5-min Rain = 0
KSC1 051620Z 09005KT 31/17 A2997 RMK A01 T03060172  RH  045%=      5-min Rain = 0
KSC1 051621Z 09005KT 31/17 A2998 RMK A01 T03060170  RH  044%=      5-min Rain = 0
KSC1 051622Z 09005KT 31/17 A2998 RMK A01 T03050171  RH  044%=      5-min Rain = 0
KSC1 051623Z 08004KT 31/17 A2998 RMK A01 T03050171  RH  045%=      5-min Rain = 0
KSC1 051624Z 08006KT 30/17 A2998 RMK A01 T03040172  RH  045%=      5-min Rain = 0
KSC1 051625Z 08006KT 30/17 A2998 RMK A01 T03040172  RH  045%=      5-min Rain = 0
KSC1 051626Z 08006KT 30/17 A2998 RMK A01 T03030172  RH  046%=      5-min Rain = 0
KSC1 051627Z 08005KT 30/17 A2998 RMK A01 T03020173  RH  046%=      5-min Rain = 0
KSC1 051628Z 08004KT 30/17 A2998 RMK A01 T03020172  RH  046%=      5-min Rain = 0
KSC1 051629Z 10005KT 30/17 A2998 RMK A01 T03020172  RH  046%=      5-min Rain = 0
KSC1 051630Z 08004KT 30/17 A2998 RMK A01 T03020172  RH  046%=      5-min Rain = 0
KSC1 051631Z 08004KT 30/17 A2998 RMK A01 T03020171  RH  045%=      5-min Rain = 0
KSC1 051632Z 07005KT 30/17 A2998 RMK A01 T03020172  RH  046%=      5-min Rain = 0
KSC1 051633Z 06005KT 30/17 A2998 RMK A01 T03010171  RH  046%=      5-min Rain = 0
KSC1 051634Z 07005KT 30/17 A2998 RMK A01 T03010171  RH  046%=      5-min Rain = 0
KSC1 051635Z 07005KT 30/17 A2998 RMK A01 T03010170  RH  045%=      5-min Rain = 0
KSC1 051636Z 06005KT 30/17 A2998 RMK A01 T03010171  RH  046%=      5-min Rain = 0
KSC1 051637Z 06004KT 30/17 A2998 RMK A01 T03010171  RH  046%=      5-min Rain = 0
KSC1 051638Z 07003KT 30/17 A2998 RMK A01 T03010170  RH  045%=      5-min Rain = 0
KSC1 051639Z 06006KT 30/17 A2998 RMK A01 T03020169  RH  045%=      5-min Rain = 0
KSC1 051640Z 08005KT 30/17 A2998 RMK A01 T03020170  RH  045%=      5-min Rain = 0
KSC1 051641Z 07004KT 30/17 A2998 RMK A01 T03020170  RH  045%=      5-min Rain = 0
KSC1 051642Z 07004KT 30/17 A2998 RMK A01 T03030171  RH  045%=      5-min Rain = 0
KSC1 051643Z 06005KT 30/17 A2998 RMK A01 T03040171  RH  045%=      5-min Rain = 0
KSC1 051644Z 06006KT 30/17 A2998 RMK A01 T03040170  RH  044%=      5-min Rain = 0
KSC1 051645Z 06004KT 30/17 A2998 RMK A01 T03040170  RH  044%=      5-min Rain = 0
KSC1 051646Z 04006KT 30/17 A2998 RMK A01 T03030170  RH  045%=      5-min Rain = 0
KSC1 051647Z 04007KT 30/17 A2998 RMK A01 T03040170  RH  045%=      5-min Rain = 0
KSC1 051648Z 04007KT 30/17 A2998 RMK A01 T03040170  RH  045%=      5-min Rain = 0
KSC1 051649Z 05006KT 30/17 A2998 RMK A01 T03040171  RH  045%=      5-min Rain = 0
KSC1 051650Z 05003KT 30/17 A2998 RMK A01 T03040171  RH  045%=      5-min Rain = 0
KSC1 051651Z 04004KT 30/17 A2998 RMK A01 T03040170  RH  045%=      5-min Rain = 0
KSC1 051652Z 04004KT 30/17 A2998 RMK A01 T03040171  RH  045%=      5-min Rain = 0
KSC1 051653Z 04004KT 30/17 A2998 RMK A01 T03040171  RH  045%=      5-min Rain = 0
KSC1 051654Z 05006KT 30/17 A2998 RMK A01 T03030170  RH  045%=      5-min Rain = 0
KSC1 051655Z 06006KT 30/17 A2998 RMK A01 T03040169  RH  044%=      5-min Rain = 0
KSC1 051656Z 06004KT 30/17 A2998 RMK A01 T03040169  RH  044%=      5-min Rain = 0
KSC1 051657Z 06003KT 30/17 A2998 RMK A01 T03040170  RH  044%=      5-min Rain = 0
KSC1 051658Z 05005KT 31/17 A2998 RMK A01 T03050170  RH  044%=      5-min Rain = 0
KSC1 051659Z 06006KT 31/17 A2998 RMK A01 T03060169  RH  044%=      5-min Rain = 0
KSC1 051700Z 06006KT 31/17 A2998 RMK A01 T03060169  RH  044%=      5-min Rain = 0
KSC1 051701Z 05005KT 31/17 A2998 RMK A01 T03060169  RH  044%=      5-min Rain = 0
KSC1 051702Z 05005KT 31/17 A2998 RMK A01 T03060168  RH  043%=      5-min Rain = 0
KSC1 051703Z 06005KT 31/17 A2998 RMK A01 T03060168  RH  043%=      5-min Rain = 0
KSC1 051704Z 06005KT 31/17 A2998 RMK A01 T03060168  RH  044%=      5-min Rain = 0
KSC1 051705Z 05005KT 31/17 A2998 RMK A01 T03060169  RH  044%=      5-min Rain = 0
KSC1 051706Z 04005KT 31/17 A2998 RMK A01 T03070168  RH  043%=      5-min Rain = 0
KSC1 051707Z 05005KT 31/17 A2998 RMK A01 T03070167  RH  043%=      5-min Rain = 0
KSC1 051708Z 04005KT 31/17 A2998 RMK A01 T03070168  RH  043%=      5-min Rain = 0
KSC1 051709Z 05005KT 31/17 A2998 RMK A01 T03070168  RH  043%=      5-min Rain = 0
KSC1 051710Z 07005KT 31/17 A2998 RMK A01 T03080169  RH  043%=      5-min Rain = 0
KSC1 051711Z 04003KT 31/17 A2998 RMK A01 T03100168  RH  043%=      5-min Rain = 0
KSC1 051712Z 02003KT 31/17 A2998 RMK A01 T03110169  RH  043%=      5-min Rain = 0
KSC1 051713Z 02004KT 31/17 A2998 RMK A01 T03120169  RH  042%=      5-min Rain = 0
KSC1 051714Z 05004KT 31/17 A2998 RMK A01 T03120169  RH  042%=      5-min Rain = 0
KSC1 051715Z 06005KT 31/17 A2998 RMK A01 T03140167  RH  041%=      5-min Rain = 0
KSC1 051716Z 05004KT 32/17 A2998 RMK A01 T03150166  RH  041%=      5-min Rain = 0
KSC1 051717Z 07003KT 32/17 A2998 RMK A01 T03150167  RH  041%=      5-min Rain = 0
KSC1 051718Z 06003KT 32/17 A2998 RMK A01 T03160166  RH  041%=      5-min Rain = 0
KSC1 051719Z 05007KT 32/17 A2998 RMK A01 T03190168  RH  040%=      5-min Rain = 0
KSC1 051720Z 05005KT 32/17 A2998 RMK A01 T03220165  RH  039%=      5-min Rain = 0
KSC1 051721Z 07004KT 32/16 A2998 RMK A01 T03200164  RH  039%=      5-min Rain = 0
KSC1 051722Z 03003KT 32/16 A2998 RMK A01 T03180164  RH  040%=      5-min Rain = 0
KSC1 051723Z 02004KT 32/17 A2998 RMK A01 T03160165  RH  040%=      5-min Rain = 0
KSC1 051724Z 05006KT 32/17 A2998 RMK A01 T03160166  RH  040%=      5-min Rain = 0
KSC1 051725Z 02006KT 32/17 A2998 RMK A01 T03170165  RH  040%=      5-min Rain = 0
KSC1 051726Z 05006KT 32/17 A2998 RMK A01 T03170165  RH  040%=      5-min Rain = 0
KSC1 051727Z 06006KT 32/16 A2998 RMK A01 T03160164  RH  040%=      5-min Rain = 0
KSC1 051728Z 08005KT 31/16 A2998 RMK A01 T03140163  RH  040%=      5-min Rain = 0
KSC1 051729Z 07002KT 31/16 A2998 RMK A01 T03130163  RH  040%=      5-min Rain = 0
KSC1 051730Z 04002KT 31/16 A2998 RMK A01 T03130164  RH  041%=      5-min Rain = 0
KSC1 051731Z 02005KT 32/16 A2998 RMK A01 T03150164  RH  040%=      5-min Rain = 0
KSC1 051732Z 05005KT 32/16 A2998 RMK A01 T03150164  RH  040%=      5-min Rain = 0
KSC1 051733Z 05005KT 32/16 A2998 RMK A01 T03150164  RH  040%=      5-min Rain = 0
KSC1 051734Z 06004KT 32/16 A2998 RMK A01 T03160164  RH  040%=      5-min Rain = 0
KSC1 051735Z 06003KT 32/16 A2998 RMK A01 T03160164  RH  040%=      5-min Rain = 0
KSC1 051736Z 03005KT 32/16 A2998 RMK A01 T03170164  RH  040%=      5-min Rain = 0
KSC1 051737Z 03005KT 32/16 A2998 RMK A01 T03170164  RH  040%=      5-min Rain = 0
KSC1 051738Z 03005KT 32/16 A2998 RMK A01 T03150163  RH  040%=      5-min Rain = 0
KSC1 051739Z 03002KT 31/16 A2998 RMK A01 T03140163  RH  040%=      5-min Rain = 0
KSC1 051740Z 05002KT 31/16 A2998 RMK A01 T03140163  RH  040%=      5-min Rain = 0
KSC1 051741Z 06004KT 31/16 A2998 RMK A01 T03140164  RH  040%=      5-min Rain = 0
KSC1 051742Z 05005KT 32/16 A2998 RMK A01 T03150163  RH  040%=      5-min Rain = 0
KSC1 051743Z 05005KT 32/16 A2998 RMK A01 T03150163  RH  040%=      5-min Rain = 0
KSC1 051744Z 05005KT 32/16 A2998 RMK A01 T03160163  RH  040%=      5-min Rain = 0
KSC1 051745Z 06004KT 32/16 A2998 RMK A01 T03160163  RH  040%=      5-min Rain = 0
KSC1 051746Z 05002KT 32/16 A2998 RMK A01 T03160162  RH  040%=      5-min Rain = 0
KSC1 051747Z 05007KT 32/16 A2998 RMK A01 T03160163  RH  040%=      5-min Rain = 0
KSC1 051748Z 05005KT 32/16 A2998 RMK A01 T03160164  RH  040%=      5-min Rain = 0
KSC1 051749Z 04005KT 32/16 A2998 RMK A01 T03170164  RH  040%=      5-min Rain = 0
KSC1 051750Z 04005KT 32/16 A2998 RMK A01 T03170164  RH  040%=      5-min Rain = 0
KSC1 051751Z 05005KT 32/16 A2998 RMK A01 T03160164  RH  040%=      5-min Rain = 0
KSC1 051752Z 05003KT 32/16 A2998 RMK A01 T03170163  RH  040%=      5-min Rain = 0
KSC1 051753Z 05002KT 32/16 A2997 RMK A01 T03180163  RH  039%=      5-min Rain = 0
KSC1 051754Z 06003KT 32/16 A2997 RMK A01 T03180163  RH  039%=      5-min Rain = 0
KSC1 051755Z 07005KT 32/16 A2997 RMK A01 T03180163  RH  039%=      5-min Rain = 0
KSC1 051756Z 06005KT 32/16 A2997 RMK A01 T03170162  RH  039%=      5-min Rain = 0
KSC1 051757Z 05005KT 32/16 A2997 RMK A01 T03170162  RH  039%=      5-min Rain = 0
KSC1 051758Z 05006KT 32/16 A2997 RMK A01 T03190162  RH  039%=      5-min Rain = 0
KSC1 051759Z 07007KT 32/16 A2997 RMK A01 T03190164  RH  039%=      5-min Rain = 0
KSC1 051800Z 07006KT 32/16 A2997 RMK A01 T03190164  RH  039%=      5-min Rain = 0
KSC1 051801Z 07005KT 32/17 A2997 RMK A01 T03190165  RH  040%=      5-min Rain = 0
KSC1 051802Z 07004KT 32/16 A2997 RMK A01 T03180164  RH  040%=      5-min Rain = 0
KSC1 051803Z 08004KT 32/16 A2997 RMK A01 T03170164  RH  040%=      5-min Rain = 0
KSC1 051804Z 09005KT 32/16 A2997 RMK A01 T03170164  RH  040%=      5-min Rain = 0
KSC1 051805Z 09004KT 32/16 A2997 RMK A01 T03170164  RH  040%=      5-min Rain = 0
KSC1 051806Z 06006KT 32/17 A2997 RMK A01 T03170165  RH  040%=      5-min Rain = 0
KSC1 051807Z 06005KT 32/17 A2997 RMK A01 T03170165  RH  040%=      5-min Rain = 0
KSC1 051808Z 03004KT 32/16 A2997 RMK A01 T03180164  RH  040%=      5-min Rain = 0
KSC1 051809Z 02003KT 32/16 A2997 RMK A01 T03170164  RH  040%=      5-min Rain = 0
KSC1 051810Z 02002KT 32/16 A2997 RMK A01 T03150163  RH  040%=      5-min Rain = 0
KSC1 051811Z 05003KT 32/16 A2997 RMK A01 T03150164  RH  040%=      5-min Rain = 0
KSC1 051812Z 05003KT 32/17 A2997 RMK A01 T03160165  RH  040%=      5-min Rain = 0
KSC1 051813Z 04004KT 32/17 A2997 RMK A01 T03180166  RH  040%=      5-min Rain = 0
KSC1 051814Z 04002KT 32/17 A2997 RMK A01 T03190165  RH  040%=      5-min Rain = 0
KSC1 051815Z 05004KT 32/17 A2997 RMK A01 T03200165  RH  040%=      5-min Rain = 0
KSC1 051816Z 05006KT 32/17 A2997 RMK A01 T03210166  RH  039%=      5-min Rain = 0
KSC1 051817Z 05006KT 32/17 A2997 RMK A01 T03210166  RH  039%=      5-min Rain = 0
KSC1 051818Z 07006KT 32/17 A2997 RMK A01 T03210166  RH  039%=      5-min Rain = 0
KSC1 051819Z 09004KT 32/17 A2997 RMK A01 T03200165  RH  039%=      5-min Rain = 0
KSC1 051820Z 06006KT 32/17 A2997 RMK A01 T03200165  RH  039%=      5-min Rain = 0
KSC1 051821Z 06006KT 32/17 A2997 RMK A01 T03240167  RH  039%=      5-min Rain = 0
KSC1 051822Z 03005KT 33/17 A2997 RMK A01 T03270166  RH  038%=      5-min Rain = 0
KSC1 051823Z 05005KT 33/17 A2997 RMK A01 T03260165  RH  038%=      5-min Rain = 0
KSC1 051824Z 06004KT 33/17 A2997 RMK A01 T03250166  RH  039%=      5-min Rain = 0
KSC1 051825Z 06004KT 33/17 A2997 RMK A01 T03260166  RH  038%=      5-min Rain = 0
KSC1 051826Z 02004KT 33/17 A2997 RMK A01 T03280166  RH  038%=      5-min Rain = 0
KSC1 051827Z 01005KT 33/17 A2997 RMK A01 T03290166  RH  038%=      5-min Rain = 0
KSC1 051828Z 04009KT 33/17 A2996 RMK A01 T03290167  RH  038%=      5-min Rain = 0
KSC1 051829Z 07006KT 33/17 A2997 RMK A01 T03310169  RH  038%=      5-min Rain = 0
KSC1 051830Z 09005KT 34/17 A2997 RMK A01 T03350167  RH  037%=      5-min Rain = 0
KSC1 051831Z 10007KT 34/17 A2997 RMK A01 T03350166  RH  036%=      5-min Rain = 0
KSC1 051832Z 09006KT 33/17 A2997 RMK A01 T03330165  RH  037%=      5-min Rain = 0
KSC1 051833Z 08004KT 33/16 A2996 RMK A01 T03300164  RH  037%=      5-min Rain = 0
KSC1 051834Z 10004KT 33/17 A2996 RMK A01 T03280165  RH  038%=      5-min Rain = 0
KSC1 051835Z 06003KT 33/17 A2996 RMK A01 T03290165  RH  037%=      5-min Rain = 0
KSC1 051836Z 04005KT 33/17 A2996 RMK A01 T03300171  RH  039%=      5-min Rain = 0
KSC1 051837Z 06007KT 33/18 A2996 RMK A01 T03310179  RH  040%=      5-min Rain = 0
KSC1 051838Z 04007KT 33/18 A2996 RMK A01 T03310181  RH  041%=      5-min Rain = 0
KSC1 051839Z 04006KT 33/18 A2996 RMK A01 T03310182  RH  041%=      5-min Rain = 0
KSC1 051840Z 03008KT 33/18 A2996 RMK A01 T03310182  RH  041%=      5-min Rain = 0
KSC1 051841Z 04008KT 33/18 A2996 RMK A01 T03280181  RH  042%=      5-min Rain = 0
KSC1 051842Z 05005KT 33/18 A2996 RMK A01 T03250181  RH  042%=      5-min Rain = 0
KSC1 051843Z 05007KT 33/18 A2996 RMK A01 T03250182  RH  043%=      5-min Rain = 0
KSC1 051844Z 04005KT 33/18 A2996 RMK A01 T03260180  RH  042%=      5-min Rain = 0
KSC1 051845Z 03007KT 33/18 A2996 RMK A01 T03260181  RH  042%=      5-min Rain = 0
KSC1 051846Z 04007KT 33/18 A2996 RMK A01 T03250181  RH  043%=      5-min Rain = 0
KSC1 051847Z 04007KT 32/18 A2996 RMK A01 T03240181  RH  043%=      5-min Rain = 0
KSC1 051848Z 04005KT 32/18 A2996 RMK A01 T03220181  RH  043%=      5-min Rain = 0
KSC1 051849Z 04006KT 32/18 A2996 RMK A01 T03210181  RH  043%=      5-min Rain = 0
KSC1 051850Z 05006KT 32/18 A2996 RMK A01 T03210181  RH  043%=      5-min Rain = 0
KSC1 051851Z 04005KT 32/18 A2996 RMK A01 T03210182  RH  043%=      5-min Rain = 0
KSC1 051852Z 05006KT 32/18 A2996 RMK A01 T03230178  RH  042%=      5-min Rain = 0
KSC1 051853Z 06005KT 32/18 A2996 RMK A01 T03240178  RH  042%=      5-min Rain = 0
KSC1 051854Z 07007KT 33/18 A2996 RMK A01 T03250180  RH  042%=      5-min Rain = 0
KSC1 051855Z 08006KT 32/18 A2996 RMK A01 T03240182  RH  043%=      5-min Rain = 0
KSC1 051856Z 07005KT 32/18 A2996 RMK A01 T03220182  RH  044%=      5-min Rain = 0
KSC1 051857Z 05009KT 32/18 A2996 RMK A01 T03220183  RH  044%=      5-min Rain = 0
KSC1 051858Z 04008KT 32/18 A2996 RMK A01 T03210183  RH  044%=      5-min Rain = 0
KSC1 051859Z 05006KT 32/18 A2996 RMK A01 T03210183  RH  044%=      5-min Rain = 0
KSC1 051900Z 05006KT 32/18 A2996 RMK A01 T03210183  RH  044%=      5-min Rain = 0
KSC1 051901Z 04006KT 32/18 A2996 RMK A01 T03220184  RH  044%=      5-min Rain = 0
KSC1 051902Z 04006KT 32/18 A2996 RMK A01 T03230183  RH  044%=      5-min Rain = 0
KSC1 051903Z 05006KT 32/18 A2996 RMK A01 T03230183  RH  043%=      5-min Rain = 0
KSC1 051904Z 05007KT 32/18 A2996 RMK A01 T03240184  RH  043%=      5-min Rain = 0
KSC1 051905Z 04008KT 32/18 A2996 RMK A01 T03240183  RH  043%=      5-min Rain = 0
KSC1 051906Z 05008KT 32/18 A2996 RMK A01 T03240183  RH  043%=      5-min Rain = 0
KSC1 051907Z 05007KT 32/18 A2996 RMK A01 T03240183  RH  043%=      5-min Rain = 0
KSC1 051908Z 04005KT 32/18 A2996 RMK A01 T03230183  RH  043%=      5-min Rain = 0
KSC1 051909Z 05007KT 32/18 A2996 RMK A01 T03240183  RH  043%=      5-min Rain = 0
KSC1 051910Z 04008KT 32/18 A2996 RMK A01 T03240183  RH  043%=      5-min Rain = 0
KSC1 051911Z 05007KT 32/18 A2995 RMK A01 T03240182  RH  043%=      5-min Rain = 0
KSC1 051912Z 05006KT 32/18 A2995 RMK A01 T03240183  RH  043%=      5-min Rain = 0
KSC1 051913Z 03006KT 32/18 A2995 RMK A01 T03240183  RH  043%=      5-min Rain = 0
KSC1 051914Z 03007KT 33/18 A2995 RMK A01 T03250183  RH  043%=      5-min Rain = 0
KSC1 051915Z 04007KT 33/18 A2995 RMK A01 T03250183  RH  043%=      5-min Rain = 0
KSC1 051916Z 06005KT 33/18 A2995 RMK A01 T03260184  RH  043%=      5-min Rain = 0
KSC1 051917Z 04005KT 33/18 A2995 RMK A01 T03270184  RH  043%=      5-min Rain = 0
KSC1 051918Z 04009KT 33/19 A2995 RMK A01 T03300185  RH  042%=      5-min Rain = 0
KSC1 051919Z 05009KT 33/18 A2995 RMK A01 T03310183  RH  042%=      5-min Rain = 0
KSC1 051920Z 04008KT 33/18 A2995 RMK A01 T03280183  RH  042%=      5-min Rain = 0
KSC1 051921Z 06009KT 33/18 A2995 RMK A01 T03270182  RH  042%=      5-min Rain = 0
KSC1 051922Z 05009KT 33/18 A2995 RMK A01 T03270182  RH  042%=      5-min Rain = 0
KSC1 051923Z 05010KT 33/18 A2995 RMK A01 T03270181  RH  042%=      5-min Rain = 0
KSC1 051924Z 06008KT 33/18 A2995 RMK A01 T03270181  RH  042%=      5-min Rain = 0
KSC1 051925Z 07008KT 33/18 A2995 RMK A01 T03270182  RH  042%=      5-min Rain = 0
KSC1 051926Z 07008KT 33/18 A2995 RMK A01 T03290181  RH  042%=      5-min Rain = 0
KSC1 051927Z 07008KT 33/18 A2995 RMK A01 T03280181  RH  042%=      5-min Rain = 0
KSC1 051928Z 07009KT 33/18 A2995 RMK A01 T03260180  RH  042%=      5-min Rain = 0
KSC1 051929Z 08007KT 33/18 A2995 RMK A01 T03250179  RH  042%=      5-min Rain = 0
KSC1 051930Z 06006KT 33/18 A2995 RMK A01 T03260179  RH  042%=      5-min Rain = 0
KSC1 051931Z 04007KT 33/18 A2995 RMK A01 T03280180  RH  041%=      5-min Rain = 0
KSC1 051932Z 05008KT 33/18 A2995 RMK A01 T03290179  RH  041%=      5-min Rain = 0
KSC1 051933Z 06007KT 33/18 A2995 RMK A01 T03280180  RH  041%=      5-min Rain = 0
KSC1 051934Z 05007KT 33/18 A2995 RMK A01 T03280180  RH  041%=      5-min Rain = 0
KSC1 051935Z 07005KT 33/18 A2994 RMK A01 T03290179  RH  041%=      5-min Rain = 0
KSC1 051936Z 05005KT 33/18 A2994 RMK A01 T03300181  RH  041%=      5-min Rain = 0
KSC1 051937Z 05007KT 33/18 A2994 RMK A01 T03320181  RH  041%=      5-min Rain = 0
KSC1 051938Z 05008KT 33/18 A2994 RMK A01 T03330180  RH  040%=      5-min Rain = 0
KSC1 051939Z 04009KT 33/18 A2994 RMK A01 T03340181  RH  040%=      5-min Rain = 0
KSC1 051940Z 04009KT 33/18 A2994 RMK A01 T03340182  RH  040%=      5-min Rain = 0
KSC1 051941Z 05007KT 34/18 A2994 RMK A01 T03380182  RH  040%=      5-min Rain = 0
KSC1 051942Z 09006KT 34/19 A2994 RMK A01 T03440185  RH  039%=      5-min Rain = 0
KSC1 051943Z 08008KT 35/18 A2994 RMK A01 T03530184  RH  037%=      5-min Rain = 0
KSC1 051944Z 08007KT 35/18 A2994 RMK A01 T03540180  RH  036%=      5-min Rain = 0
KSC1 051945Z 10009KT 35/18 A2994 RMK A01 T03480178  RH  037%=      5-min Rain = 0
KSC1 051946Z 07007KT 34/18 A2994 RMK A01 T03440179  RH  038%=      5-min Rain = 0
KSC1 051947Z 05006KT 35/18 A2994 RMK A01 T03450180  RH  038%=      5-min Rain = 0
KSC1 051948Z 03004KT 35/18 A2994 RMK A01 T03460179  RH  037%=      5-min Rain = 0
KSC1 051949Z 04008KT 35/18 A2994 RMK A01 T03460181  RH  038%=      5-min Rain = 0
KSC1 051950Z 06007G12KT 34/18 A2993 RMK A01 T03440181  RH  038%=      5-min Rain = 0
KSC1 051951Z 06007KT 34/18 A2993 RMK A01 T03430181  RH  038%=      5-min Rain = 0
KSC1 051952Z 06007KT 34/18 A2993 RMK A01 T03420181  RH  038%=      5-min Rain = 0
KSC1 051953Z 07011KT 34/18 A2993 RMK A01 T03420180  RH  038%=      5-min Rain = 0
KSC1 051954Z 07008G13KT 34/18 A2994 RMK A01 T03390179  RH  039%=      5-min Rain = 0
KSC1 051955Z 07009KT 34/18 A2993 RMK A01 T03370179  RH  039%=      5-min Rain = 0
KSC1 051956Z 07008KT 34/18 A2994 RMK A01 T03380179  RH  039%=      5-min Rain = 0
KSC1 051957Z 07005KT 34/18 A2993 RMK A01 T03390179  RH  039%=      5-min Rain = 0
KSC1 051958Z 04004KT 34/18 A2993 RMK A01 T03410180  RH  039%=      5-min Rain = 0
KSC1 051959Z 03007KT 35/18 A2993 RMK A01 T03470183  RH  038%=      5-min Rain = 0
KSC1 052000Z 04006KT 35/18 A2993 RMK A01 T03510181  RH  037%=      5-min Rain = 0
KSC1 052001Z 08006KT 35/18 A2993 RMK A01 T03500180  RH  037%=      5-min Rain = 0
KSC1 052002Z 08007KT 35/18 A2993 RMK A01 T03510179  RH  036%=      5-min Rain = 0
KSC1 052003Z 06007KT 35/18 A2993 RMK A01 T03530178  RH  036%=      5-min Rain = 0
KSC1 052004Z 08006KT 35/18 A2993 RMK A01 T03530175  RH  035%=      5-min Rain = 0
KSC1 052005Z 08004KT 35/18 A2993 RMK A01 T03480175  RH  036%=      5-min Rain = 0
KSC1 052006Z 06008KT 35/18 A2993 RMK A01 T03470177  RH  037%=      5-min Rain = 0
KSC1 052007Z 05008KT 35/18 A2993 RMK A01 T03450177  RH  037%=      5-min Rain = 0
KSC1 052008Z 04004KT 34/18 A2993 RMK A01 T03410177  RH  038%=      5-min Rain = 0
KSC1 052009Z 04009KT 34/18 A2993 RMK A01 T03380178  RH  039%=      5-min Rain = 0
KSC1 052010Z 04008KT 34/18 A2993 RMK A01 T03360178  RH  039%=      5-min Rain = 0
KSC1 052011Z 02006KT 34/18 A2993 RMK A01 T03370179  RH  039%=      5-min Rain = 0
KSC1 052012Z 01006KT 34/18 A2993 RMK A01 T03410179  RH  038%=      5-min Rain = 0
KSC1 052013Z 05005KT 35/18 A2993 RMK A01 T03450180  RH  038%=      5-min Rain = 0
KSC1 052014Z 06008KT 35/18 A2993 RMK A01 T03470179  RH  037%=      5-min Rain = 0
KSC1 052015Z 08007KT 34/18 A2993 RMK A01 T03440175  RH  037%=      5-min Rain = 0
KSC1 052016Z 04006KT 34/18 A2993 RMK A01 T03400175  RH  038%=      5-min Rain = 0
KSC1 052017Z 04007KT 34/18 A2993 RMK A01 T03400176  RH  038%=      5-min Rain = 0
KSC1 052018Z 07009KT 34/18 A2993 RMK A01 T03400178  RH  038%=      5-min Rain = 0
KSC1 052019Z 07006KT 34/18 A2993 RMK A01 T03400178  RH  038%=      5-min Rain = 0
KSC1 052020Z 05008KT 34/18 A2993 RMK A01 T03380178  RH  039%=      5-min Rain = 0
KSC1 052021Z 05005KT 34/18 A2993 RMK A01 T03360178  RH  039%=      5-min Rain = 0
KSC1 052022Z 05008KT 34/18 A2993 RMK A01 T03350178  RH  039%=      5-min Rain = 0
KSC1 052023Z 03007KT 33/18 A2993 RMK A01 T03330178  RH  040%=      5-min Rain = 0
KSC1 052024Z 03007KT 33/18 A2993 RMK A01 T03330179  RH  040%=      5-min Rain = 0
KSC1 052025Z 04005KT 33/18 A2992 RMK A01 T03340180  RH  040%=      5-min Rain = 0
KSC1 052026Z 05006KT 34/18 A2992 RMK A01 T03380180  RH  039%=      5-min Rain = 0
KSC1 052027Z 04008KT 34/18 A2992 RMK A01 T03440182  RH  038%=      5-min Rain = 0
KSC1 052028Z 05008KT 35/18 A2992 RMK A01 T03460182  RH  038%=      5-min Rain = 0
KSC1 052029Z 04007KT 35/18 A2992 RMK A01 T03480183  RH  038%=      5-min Rain = 0
KSC1 052030Z 04005KT 35/18 A2992 RMK A01 T03490181  RH  037%=      5-min Rain = 0
KSC1 052031Z 06009KT 35/18 A2992 RMK A01 T03510181  RH  037%=      5-min Rain = 0
KSC1 052032Z 05007KT 35/18 A2992 RMK A01 T03500182  RH  037%=      5-min Rain = 0
KSC1 052033Z 04010KT 35/18 A2992 RMK A01 T03510182  RH  037%=      5-min Rain = 0
KSC1 052034Z 05008KT 35/18 A2992 RMK A01 T03470180  RH  037%=      5-min Rain = 0
KSC1 052035Z 04007KT 34/18 A2992 RMK A01 T03430181  RH  038%=      5-min Rain = 0
KSC1 052036Z 04009KT 35/18 A2992 RMK A01 T03450181  RH  038%=      5-min Rain = 0
KSC1 052037Z 03007KT 35/18 A2992 RMK A01 T03460181  RH  038%=      5-min Rain = 0
KSC1 052038Z 04009KT 35/18 A2992 RMK A01 T03460182  RH  038%=      5-min Rain = 0
KSC1 052039Z 03008KT 35/18 A2992 RMK A01 T03490181  RH  037%=      5-min Rain = 0
KSC1 052040Z 03009G14KT 35/18 A2992 RMK A01 T03480181  RH  037%=      5-min Rain = 0
KSC1 052041Z 04010KT 35/18 A2992 RMK A01 T03480180  RH  037%=      5-min Rain = 0
KSC1 052042Z 04008KT 35/18 A2992 RMK A01 T03480179  RH  037%=      5-min Rain = 0
KSC1 052043Z 04007KT 35/18 A2992 RMK A01 T03470179  RH  037%=      5-min Rain = 0
KSC1 052044Z 04008KT 35/18 A2992 RMK A01 T03490180  RH  037%=      5-min Rain = 0
KSC1 052045Z 06008KT 35/18 A2992 RMK A01 T03530179  RH  036%=      5-min Rain = 0
KSC1 052046Z 05007KT 35/18 A2992 RMK A01 T03520177  RH  036%=      5-min Rain = 0
KSC1 052047Z 05007KT 35/18 A2992 RMK A01 T03470175  RH  036%=      5-min Rain = 0
KSC1 052048Z 06006KT 34/18 A2991 RMK A01 T03440175  RH  037%=      5-min Rain = 0
KSC1 052049Z 08004KT 34/18 A2991 RMK A01 T03420175  RH  037%=      5-min Rain = 0
KSC1 052050Z 07006KT 34/18 A2991 RMK A01 T03410175  RH  038%=      5-min Rain = 0
KSC1 052051Z 07006KT 34/18 A2991 RMK A01 T03430177  RH  037%=      5-min Rain = 0
KSC1 052052Z 09006KT 35/18 A2991 RMK A01 T03470176  RH  036%=      5-min Rain = 0
KSC1 052053Z 06006KT 35/18 A2991 RMK A01 T03480176  RH  036%=      5-min Rain = 0
KSC1 052054Z 03008KT 35/18 A2991 RMK A01 T03510176  RH  036%=      5-min Rain = 0
KSC1 052055Z 06008KT 35/18 A2991 RMK A01 T03500177  RH  036%=      5-min Rain = 0
KSC1 052056Z 05006KT 35/18 A2991 RMK A01 T03510178  RH  036%=      5-min Rain = 0
KSC1 052057Z 07010KT 35/18 A2991 RMK A01 T03540177  RH  035%=      5-min Rain = 0
KSC1 052058Z 09010KT 36/17 A2991 RMK A01 T03550174  RH  034%=      5-min Rain = 0
KSC1 052059Z 09009KT 36/17 A2991 RMK A01 T03560173  RH  034%=      5-min Rain = 0
KSC1 052100Z 06005KT 35/17 A2991 RMK A01 T03540173  RH  034%=      5-min Rain = 0
KSC1 052101Z 06004KT 35/17 A2991 RMK A01 T03540173  RH  034%=      5-min Rain = 0
KSC1 052102Z 06007KT 36/17 A2991 RMK A01 T03580174  RH  034%=      5-min Rain = 0
KSC1 052103Z 07007KT 36/17 A2991 RMK A01 T03600173  RH  033%=      5-min Rain = 0
KSC1 052104Z 08004KT 36/17 A2991 RMK A01 T03600173  RH  033%=      5-min Rain = 0
KSC1 052105Z 09006KT 36/17 A2991 RMK A01 T03570174  RH  034%=      5-min Rain = 0
KSC1 052106Z 10009KT 36/18 A2991 RMK A01 T03610175  RH  034%=      5-min Rain = 0
KSC1 052107Z 11008KT 36/17 A2991 RMK A01 T03620174  RH  033%=      5-min Rain = 0
KSC1 052108Z 12008G13KT 36/17 A2991 RMK A01 T03580172  RH  033%=      5-min Rain = 0
KSC1 052109Z 12007KT 36/17 A2991 RMK A01 T03550172  RH  034%=      5-min Rain = 0
KSC1 052110Z 13005KT 36/17 A299 RMK A01 T03550172  RH  034%=      5-min Rain = 0
KSC1 052111Z 06006KT 36/17 A2991 RMK A01 T03550172  RH  034%=      5-min Rain = 0
KSC1 052112Z 09006KT 36/17 A299 RMK A01 T03560173  RH  034%=      5-min Rain = 0
KSC1 052113Z 11009KT 36/17 A299 RMK A01 T03570172  RH  034%=      5-min Rain = 0
KSC1 052114Z 08005KT 36/17 A299 RMK A01 T03560170  RH  033%=      5-min Rain = 0
KSC1 052115Z 08006KT 36/17 A299 RMK A01 T03550171  RH  034%=      5-min Rain = 0
KSC1 052116Z 08007KT 36/17 A299 RMK A01 T03550172  RH  034%=      5-min Rain = 0
KSC1 052117Z 09005KT 36/17 A299 RMK A01 T03560171  RH  034%=      5-min Rain = 0
KSC1 052118Z 11002KT 36/17 A299 RMK A01 T03550173  RH  034%=      5-min Rain = 0
KSC1 052119Z 08004KT 36/17 A299 RMK A01 T03560172  RH  034%=      5-min Rain = 0
KSC1 052120Z 08007KT 36/17 A299 RMK A01 T03580173  RH  034%=      5-min Rain = 0
KSC1 052121Z 13008KT 36/17 A299 RMK A01 T03610173  RH  033%=      5-min Rain = 0
KSC1 052122Z 15006G11KT 36/17 A299 RMK A01 T03630171  RH  032%=      5-min Rain = 0
KSC1 052123Z 13006KT 36/17 A2989 RMK A01 T03610171  RH  033%=      5-min Rain = 0
KSC1 052124Z 08006KT 36/17 A2989 RMK A01 T03620171  RH  032%=      5-min Rain = 0
KSC1 052125Z 04004KT 36/17 A2989 RMK A01 T03620171  RH  032%=      5-min Rain = 0
KSC1 052126Z 05002KT 36/17 A2989 RMK A01 T03610171  RH  033%=      5-min Rain = 0
KSC1 052127Z 09008G13KT 36/17 A2989 RMK A01 T03610172  RH  033%=      5-min Rain = 0
KSC1 052128Z 11011KT 36/17 A2989 RMK A01 T03620172  RH  033%=      5-min Rain = 0
KSC1 052129Z 11011KT 36/17 A2989 RMK A01 T03640172  RH  032%=      5-min Rain = 0
KSC1 052130Z 11010KT 36/17 A2989 RMK A01 T03630172  RH  032%=      5-min Rain = 0
KSC1 052131Z 12011KT 36/17 A2989 RMK A01 T03640173  RH  032%=      5-min Rain = 0
KSC1 052132Z 12008KT 37/17 A2989 RMK A01 T03650172  RH  032%=      5-min Rain = 0
KSC1 052133Z 14006KT 37/17 A2989 RMK A01 T03650172  RH  032%=      5-min Rain = 0
KSC1 052134Z 11006KT 37/17 A2989 RMK A01 T03650171  RH  032%=      5-min Rain = 0
KSC1 052135Z 10006KT 37/17 A2989 RMK A01 T03650172  RH  032%=      5-min Rain = 0
KSC1 052136Z 10005KT 37/17 A2989 RMK A01 T03650171  RH  032%=      5-min Rain = 0
KSC1 052137Z 08008KT 37/17 A2989 RMK A01 T03650172  RH  032%=      5-min Rain = 0
KSC1 052138Z 09009KT 36/17 A2989 RMK A01 T03640170  RH  032%=      5-min Rain = 0
KSC1 052139Z 06006KT 36/17 A2989 RMK A01 T03600170  RH  033%=      5-min Rain = 0
KSC1 052140Z 13006KT 36/17 A2989 RMK A01 T03590171  RH  033%=      5-min Rain = 0
KSC1 052141Z 14007KT 36/17 A2989 RMK A01 T03590171  RH  033%=      5-min Rain = 0
KSC1 052142Z 07005KT 36/17 A2989 RMK A01 T03610171  RH  033%=      5-min Rain = 0
KSC1 052143Z 07005KT 36/17 A2989 RMK A01 T03620171  RH  032%=      5-min Rain = 0
KSC1 052144Z 09005G10KT 36/17 A2989 RMK A01 T03620171  RH  032%=      5-min Rain = 0
KSC1 052145Z 10011KT 36/17 A2989 RMK A01 T03610170  RH  032%=      5-min Rain = 0
KSC1 052146Z 12010KT 37/17 A2989 RMK A01 T03670172  RH  032%=      5-min Rain = 0
KSC1 052147Z 15009KT 37/17 A2989 RMK A01 T03720171  RH  031%=      5-min Rain = 0
KSC1 052148Z 14008KT 37/17 A2989 RMK A01 T03720171  RH  031%=      5-min Rain = 0
KSC1 052149Z 12005KT 37/17 A2989 RMK A01 T03700171  RH  031%=      5-min Rain = 0
KSC1 052150Z 10006KT 37/17 A2989 RMK A01 T03690169  RH  031%=      5-min Rain = 0
KSC1 052151Z 11007KT 37/17 A2989 RMK A01 T03690170  RH  031%=      5-min Rain = 0
KSC1 052152Z 07008KT 37/17 A2989 RMK A01 T03680169  RH  031%=      5-min Rain = 0
KSC1 052153Z 07007KT 37/17 A2989 RMK A01 T03670169  RH  031%=      5-min Rain = 0
KSC1 052154Z 07005KT 37/17 A2988 RMK A01 T03670170  RH  031%=      5-min Rain = 0
KSC1 052155Z 06004KT 37/17 A2988 RMK A01 T03680169  RH  031%=      5-min Rain = 0
KSC1 052156Z 09006KT 37/17 A2988 RMK A01 T03670168  RH  031%=      5-min Rain = 0
KSC1 052157Z 12008KT 37/17 A2988 RMK A01 T03660168  RH  031%=      5-min Rain = 0
KSC1 052158Z 12008KT 37/17 A2988 RMK A01 T03670167  RH  031%=      5-min Rain = 0
KSC1 052159Z 10009KT 37/17 A2988 RMK A01 T03680167  RH  031%=      5-min Rain = 0
KSC1 052200Z 09009KT 37/17 A2988 RMK A01 T03700165  RH  030%=      5-min Rain = 0
KSC1 052201Z 09005KT 37/16 A2988 RMK A01 T03670164  RH  030%=      5-min Rain = 0
KSC1 052202Z 10005KT 37/16 A2988 RMK A01 T03650164  RH  031%=      5-min Rain = 0
KSC1 052203Z 11005KT 36/17 A2988 RMK A01 T03640165  RH  031%=      5-min Rain = 0
KSC1 052204Z 11003KT 37/17 A2988 RMK A01 T03670166  RH  030%=      5-min Rain = 0
KSC1 052205Z 12003KT 37/17 A2988 RMK A01 T03690165  RH  030%=      5-min Rain = 0
KSC1 052206Z 11005KT 37/17 A2988 RMK A01 T03690166  RH  030%=      5-min Rain = 0
KSC1 052207Z 11004KT 37/17 A2988 RMK A01 T03700167  RH  030%=      5-min Rain = 0
KSC1 052208Z 14004KT 37/17 A2988 RMK A01 T03700166  RH  030%=      5-min Rain = 0
KSC1 052209Z 18007KT 37/17 A2988 RMK A01 T03680165  RH  030%=      5-min Rain = 0
KSC1 052210Z 19007KT 37/17 A2988 RMK A01 T03690166  RH  030%=      5-min Rain = 0
KSC1 052211Z 15007KT 37/17 A2987 RMK A01 T03690166  RH  030%=      5-min Rain = 0
KSC1 052212Z 12006KT 37/17 A2987 RMK A01 T03700167  RH  030%=      5-min Rain = 0
KSC1 052213Z 13006KT 37/16 A2987 RMK A01 T03700164  RH  030%=      5-min Rain = 0
KSC1 052214Z 15006KT 37/16 A2987 RMK A01 T03710164  RH  029%=      5-min Rain = 0
KSC1 052215Z 15007KT 37/17 A2987 RMK A01 T03720165  RH  030%=      5-min Rain = 0
KSC1 052216Z 14007KT 37/17 A2987 RMK A01 T03710165  RH  030%=      5-min Rain = 0
KSC1 052217Z 09007KT 37/17 A2987 RMK A01 T03700165  RH  030%=      5-min Rain = 0
KSC1 052218Z 11008G13KT 37/17 A2987 RMK A01 T03710165  RH  030%=      5-min Rain = 0
KSC1 052219Z 11010KT 37/16 A2987 RMK A01 T03720164  RH  029%=      5-min Rain = 0
KSC1 052220Z 11007KT 37/16 A2987 RMK A01 T03730163  RH  029%=      5-min Rain = 0
KSC1 052221Z 11005KT 37/16 A2987 RMK A01 T03720163  RH  029%=      5-min Rain = 0
KSC1 052222Z 09006KT 37/16 A2987 RMK A01 T03690164  RH  030%=      5-min Rain = 0
KSC1 052223Z 13007KT 37/16 A2987 RMK A01 T03680164  RH  030%=      5-min Rain = 0
KSC1 052224Z 12008KT 37/16 A2987 RMK A01 T03680164  RH  030%=      5-min Rain = 0
KSC1 052225Z 12012KT 37/16 A2987 RMK A01 T03690164  RH  030%=      5-min Rain = 0
KSC1 052226Z 12009KT 37/16 A2987 RMK A01 T03710163  RH  029%=      5-min Rain = 0
KSC1 052227Z 10007KT 37/17 A2987 RMK A01 T03700165  RH  030%=      5-min Rain = 0
KSC1 052228Z 11007KT 37/17 A2987 RMK A01 T03740165  RH  029%=      5-min Rain = 0
KSC1 052229Z 10007KT 38/16 A2987 RMK A01 T03770163  RH  028%=      5-min Rain = 0
KSC1 052230Z 11006KT 38/16 A2987 RMK A01 T03750163  RH  029%=      5-min Rain = 0
KSC1 052231Z 07006KT 37/16 A2987 RMK A01 T03740162  RH  029%=      5-min Rain = 0
KSC1 052232Z 05005KT 37/16 A2987 RMK A01 T03730162  RH  029%=      5-min Rain = 0
KSC1 052233Z 07003KT 37/16 A2987 RMK A01 T03730163  RH  029%=      5-min Rain = 0
KSC1 052234Z 04003KT 37/16 A2987 RMK A01 T03730162  RH  029%=      5-min Rain = 0
KSC1 052235Z 02002KT 37/16 A2987 RMK A01 T03740162  RH  029%=      5-min Rain = 0
KSC1 052236Z 05002KT 37/16 A2987 RMK A01 T03740161  RH  028%=      5-min Rain = 0
KSC1 052237Z 07002KT 37/16 A2987 RMK A01 T03730161  RH  029%=      5-min Rain = 0
KSC1 052238Z 10004KT 37/16 A2987 RMK A01 T03710161  RH  029%=      5-min Rain = 0
KSC1 052239Z 11005KT 37/16 A2986 RMK A01 T03710161  RH  029%=      5-min Rain = 0
KSC1 052240Z 11007KT 37/16 A2986 RMK A01 T03720162  RH  029%=      5-min Rain = 0
KSC1 052241Z 14008KT 38/16 A2986 RMK A01 T03750161  RH  028%=      5-min Rain = 0
KSC1 052242Z 15008KT 38/16 A2986 RMK A01 T03760162  RH  028%=      5-min Rain = 0
KSC1 052243Z 16007KT 37/16 A2986 RMK A01 T03740162  RH  029%=      5-min Rain = 0
KSC1 052244Z 16007KT 37/16 A2986 RMK A01 T03730162  RH  029%=      5-min Rain = 0
KSC1 052245Z 14008KT 37/16 A2986 RMK A01 T03730162  RH  029%=      5-min Rain = 0
KSC1 052246Z 18006KT 37/16 A2986 RMK A01 T03720161  RH  029%=      5-min Rain = 0
KSC1 052247Z 19006KT 37/16 A2986 RMK A01 T03700160  RH  029%=      5-min Rain = 0
KSC1 052248Z 30002KT 37/16 A2986 RMK A01 T03700160  RH  029%=      5-min Rain = 0
KSC1 052249Z 11006G11KT 37/16 A2985 RMK A01 T03700162  RH  029%=      5-min Rain = 0
KSC1 052250Z 11010KT 37/16 A2986 RMK A01 T03720161  RH  029%=      5-min Rain = 0
KSC1 052251Z 12010KT 37/16 A2986 RMK A01 T03730161  RH  029%=      5-min Rain = 0
KSC1 052252Z 08009KT 37/16 A2986 RMK A01 T03730161  RH  029%=      5-min Rain = 0
KSC1 052253Z 08010KT 37/16 A2986 RMK A01 T03710161  RH  029%=      5-min Rain = 0
KSC1 052254Z 08007KT 37/16 A2986 RMK A01 T03700161  RH  029%=      5-min Rain = 0
KSC1 052255Z 06006KT 37/16 A2986 RMK A01 T03690160  RH  029%=      5-min Rain = 0
KSC1 052256Z 06006KT 37/16 A2986 RMK A01 T03680159  RH  029%=      5-min Rain = 0
KSC1 052257Z 04005KT 37/16 A2986 RMK A01 T03680159  RH  029%=      5-min Rain = 0
KSC1 052258Z 05003KT 37/16 A2986 RMK A01 T03680159  RH  029%=      5-min Rain = 0
KSC1 052259Z 09007KT 37/16 A2986 RMK A01 T03680159  RH  029%=      5-min Rain = 0
KSC1 052300Z 07006KT 37/16 A2986 RMK A01 T03690158  RH  029%=      5-min Rain = 0
KSC1 052301Z 06005KT 37/16 A2985 RMK A01 T03690159  RH  029%=      5-min Rain = 0
KSC1 052302Z 07005KT 37/16 A2985 RMK A01 T03700159  RH  029%=      5-min Rain = 0
KSC1 052303Z 10005KT 37/16 A2985 RMK A01 T03690159  RH  029%=      5-min Rain = 0
KSC1 052304Z 05005KT 37/16 A2985 RMK A01 T03710159  RH  029%=      5-min Rain = 0
KSC1 052305Z 07007KT 37/16 A2985 RMK A01 T03720158  RH  028%=      5-min Rain = 0
KSC1 052306Z 06005KT 37/16 A2985 RMK A01 T03730157  RH  028%=      5-min Rain = 0
KSC1 052307Z 10005KT 37/16 A2985 RMK A01 T03740156  RH  028%=      5-min Rain = 0
KSC1 052308Z 12006KT 37/16 A2985 RMK A01 T03740156  RH  028%=      5-min Rain = 0
KSC1 052309Z 14006KT 37/16 A2985 RMK A01 T03740155  RH  027%=      5-min Rain = 0
KSC1 052310Z 09005KT 37/16 A2985 RMK A01 T03730155  RH  028%=      5-min Rain = 0
KSC1 052311Z 10002KT 37/15 A2985 RMK A01 T03720154  RH  027%=      5-min Rain = 0
KSC1 052312Z 22001KT 37/15 A2985 RMK A01 T03720153  RH  027%=      5-min Rain = 0
KSC1 052313Z 09005KT 37/15 A2985 RMK A01 T03730154  RH  027%=      5-min Rain = 0
KSC1 052314Z 06005KT 38/15 A2985 RMK A01 T03750153  RH  027%=      5-min Rain = 0
KSC1 052315Z 05004KT 37/15 A2985 RMK A01 T03740152  RH  027%=      5-min Rain = 0
KSC1 052316Z 09004KT 37/15 A2985 RMK A01 T03730154  RH  027%=      5-min Rain = 0
KSC1 052317Z 11006KT 37/16 A2985 RMK A01 T03740156  RH  028%=      5-min Rain = 0
KSC1 052318Z 10009KT 37/16 A2985 RMK A01 T03740156  RH  028%=      5-min Rain = 0
KSC1 052319Z 09008KT 37/16 A2985 RMK A01 T03740156  RH  028%=      5-min Rain = 0
KSC1 052320Z 09008KT 37/16 A2985 RMK A01 T03720156  RH  028%=      5-min Rain = 0
KSC1 052321Z 09008KT 37/16 A2985 RMK A01 T03720156  RH  028%=      5-min Rain = 0
KSC1 052322Z 08004KT 37/16 A2985 RMK A01 T03710155  RH  028%=      5-min Rain = 0
KSC1 052323Z 08005KT 37/16 A2984 RMK A01 T03710155  RH  028%=      5-min Rain = 0
KSC1 052324Z 08004KT 37/15 A2984 RMK A01 T03700154  RH  028%=      5-min Rain = 0
KSC1 052325Z 08003KT 37/15 A2984 RMK A01 T03690154  RH  028%=      5-min Rain = 0
KSC1 052326Z 08003KT 37/16 A2984 RMK A01 T03690155  RH  028%=      5-min Rain = 0
KSC1 052327Z 06003KT 37/16 A2984 RMK A01 T03690155  RH  028%=      5-min Rain = 0
KSC1 052328Z 08004KT 37/15 A2984 RMK A01 T03710154  RH  028%=      5-min Rain = 0
KSC1 052329Z 06005KT 37/16 A2984 RMK A01 T03710156  RH  028%=      5-min Rain = 0
KSC1 052330Z 05007KT 37/16 A2984 RMK A01 T03720155  RH  028%=      5-min Rain = 0
KSC1 052331Z 04005KT 37/15 A2984 RMK A01 T03700154  RH  028%=      5-min Rain = 0
KSC1 052332Z 05006KT 37/16 A2984 RMK A01 T03680155  RH  028%=      5-min Rain = 0
KSC1 052333Z 05005KT 37/16 A2984 RMK A01 T03670155  RH  028%=      5-min Rain = 0
KSC1 052334Z 07007KT 37/16 A2984 RMK A01 T03660155  RH  029%=      5-min Rain = 0
KSC1 052335Z 07008KT 37/16 A2984 RMK A01 T03680155  RH  028%=      5-min Rain = 0
KSC1 052336Z 08008KT 37/15 A2984 RMK A01 T03690154  RH  028%=      5-min Rain = 0
KSC1 052337Z 08008KT 37/15 A2984 RMK A01 T03690152  RH  028%=      5-min Rain = 0
KSC1 052338Z 07006KT 37/15 A2984 RMK A01 T03690153  RH  028%=      5-min Rain = 0
KSC1 052339Z 07005KT 37/15 A2984 RMK A01 T03700153  RH  028%=      5-min Rain = 0
KSC1 052340Z 09006KT 37/15 A2984 RMK A01 T03710153  RH  027%=      5-min Rain = 0
KSC1 052341Z 09006KT 37/15 A2984 RMK A01 T03720152  RH  027%=      5-min Rain = 0
KSC1 052342Z 07007KT 37/15 A2984 RMK A01 T03730151  RH  027%=      5-min Rain = 0
KSC1 052343Z 07008KT 37/15 A2984 RMK A01 T03730151  RH  027%=      5-min Rain = 0
KSC1 052344Z 07008KT 37/15 A2984 RMK A01 T03720151  RH  027%=      5-min Rain = 0
KSC1 052345Z 06006KT 37/15 A2984 RMK A01 T03700151  RH  027%=      5-min Rain = 0
KSC1 052346Z 07006KT 37/15 A2984 RMK A01 T03690152  RH  028%=      5-min Rain = 0
KSC1 052347Z 08005KT 37/15 A2984 RMK A01 T03690152  RH  028%=      5-min Rain = 0
KSC1 052348Z 09004KT 37/15 A2984 RMK A01 T03700151  RH  027%=      5-min Rain = 0
KSC1 052349Z 10006KT 37/15 A2984 RMK A01 T03700151  RH  027%=      5-min Rain = 0
KSC1 052350Z 10008KT 37/15 A2984 RMK A01 T03700152  RH  027%=      5-min Rain = 0
KSC1 052351Z 11009KT 37/15 A2984 RMK A01 T03710153  RH  027%=      5-min Rain = 0
KSC1 052352Z 11010KT 37/15 A2984 RMK A01 T03730153  RH  027%=      5-min Rain = 0
KSC1 052353Z 10010KT 37/15 A2984 RMK A01 T03730153  RH  027%=      5-min Rain = 0
KSC1 052354Z 10007KT 37/15 A2984 RMK A01 T03700153  RH  028%=      5-min Rain = 0
KSC1 052355Z 10006KT 37/15 A2983 RMK A01 T03700152  RH  028%=      5-min Rain = 0
KSC1 052356Z 09005KT 37/15 A2983 RMK A01 T03690152  RH  028%=      5-min Rain = 0
KSC1 052357Z 08004KT 37/15 A2983 RMK A01 T03690152  RH  028%=      5-min Rain = 0
KSC1 052358Z 08004KT 37/15 A2983 RMK A01 T03690152  RH  028%=      5-min Rain = 0
KSC1 052359Z 06003KT 37/15 A2983 RMK A01 T03700152  RH  028%=      5-min Rain = 0
KSC1 060000Z 08004KT 37/15 A2983 RMK A01 T03700152  RH  028%=      5-min Rain = 0
KSC1 060001Z 11006KT 37/15 A2983 RMK A01 T03710154  RH  028%=      5-min Rain = 0
KSC1 060002Z 11011KT 37/16 A2984 RMK A01 T03710157  RH  028%=      5-min Rain = 0
KSC1 060003Z 13009KT 37/16 A2983 RMK A01 T03710159  RH  029%=      5-min Rain = 0
KSC1 060004Z 11009KT 37/16 A2983 RMK A01 T03700159  RH  029%=      5-min Rain = 0
KSC1 060005Z 10009KT 37/16 A2983 RMK A01 T03700160  RH  029%=      5-min Rain = 0
KSC1 060006Z 09009KT 37/16 A2983 RMK A01 T03710159  RH  029%=      5-min Rain = 0
KSC1 060007Z 08008KT 37/16 A2984 RMK A01 T03710159  RH  029%=      5-min Rain = 0
KSC1 060008Z 08006KT 37/16 A2984 RMK A01 T03700160  RH  029%=      5-min Rain = 0
KSC1 060009Z 08005KT 37/16 A2984 RMK A01 T03690160  RH  029%=      5-min Rain = 0
KSC1 060010Z 10007KT 37/16 A2984 RMK A01 T03680160  RH  029%=      5-min Rain = 0
KSC1 060011Z 07006G11KT 37/16 A2983 RMK A01 T03680161  RH  029%=      5-min Rain = 0
KSC1 060012Z 08008KT 37/16 A2984 RMK A01 T03680161  RH  029%=      5-min Rain = 0
KSC1 060013Z 07010KT 37/16 A2983 RMK A01 T03690160  RH  029%=      5-min Rain = 0
KSC1 060014Z 06009KT 37/16 A2984 RMK A01 T03670159  RH  029%=      5-min Rain = 0
KSC1 060015Z 07008G13KT 37/16 A2983 RMK A01 T03660160  RH  030%=      5-min Rain = 0
KSC1 060016Z 06010KT 37/16 A2984 RMK A01 T03660160  RH  030%=      5-min Rain = 0
KSC1 060017Z 07008KT 37/16 A2983 RMK A01 T03650160  RH  030%=      5-min Rain = 0
KSC1 060018Z 07009KT 37/16 A2984 RMK A01 T03650160  RH  030%=      5-min Rain = 0
KSC1 060019Z 07009KT 37/16 A2983 RMK A01 T03650159  RH  030%=      5-min Rain = 0
KSC1 060020Z 06008KT 37/16 A2983 RMK A01 T03650159  RH  029%=      5-min Rain = 0
KSC1 060021Z 07007KT 37/16 A2983 RMK A01 T03650158  RH  029%=      5-min Rain = 0
KSC1 060022Z 09009KT 37/16 A2983 RMK A01 T03650157  RH  029%=      5-min Rain = 0
KSC1 060023Z 09008KT 37/16 A2983 RMK A01 T03650155  RH  029%=      5-min Rain = 0
KSC1 060024Z 09006KT 37/16 A2983 RMK A01 T03650155  RH  029%=      5-min Rain = 0
KSC1 060025Z 11011KT 37/16 A2983 RMK A01 T03660156  RH  029%=      5-min Rain = 0
KSC1 060026Z 11008KT 37/16 A2983 RMK A01 T03660156  RH  029%=      5-min Rain = 0
KSC1 060027Z 09008KT 37/16 A2983 RMK A01 T03660156  RH  029%=      5-min Rain = 0
KSC1 060028Z 10011KT 37/16 A2983 RMK A01 T03660157  RH  029%=      5-min Rain = 0
KSC1 060029Z 10010KT 37/16 A2983 RMK A01 T03660157  RH  029%=      5-min Rain = 0
KSC1 060030Z 10011KT 37/16 A2983 RMK A01 T03650157  RH  029%=      5-min Rain = 0
KSC1 060031Z 09008KT 36/16 A2983 RMK A01 T03640158  RH  029%=      5-min Rain = 0
KSC1 060032Z 09008KT 36/16 A2983 RMK A01 T03630158  RH  030%=      5-min Rain = 0
KSC1 060033Z 08006KT 36/16 A2983 RMK A01 T03620158  RH  030%=      5-min Rain = 0
KSC1 060034Z 09009KT 36/16 A2983 RMK A01 T03620158  RH  030%=      5-min Rain = 0
KSC1 060035Z 09008KT 36/16 A2983 RMK A01 T03620158  RH  030%=      5-min Rain = 0
KSC1 060036Z 10008KT 36/16 A2983 RMK A01 T03620158  RH  030%=      5-min Rain = 0
KSC1 060037Z 09005KT 36/16 A2983 RMK A01 T03620158  RH  030%=      5-min Rain = 0
KSC1 060038Z 09007KT 36/16 A2983 RMK A01 T03620158  RH  030%=      5-min Rain = 0
KSC1 060039Z 09007KT 36/16 A2983 RMK A01 T03620156  RH  029%=      5-min Rain = 0
KSC1 060040Z 09007KT 36/16 A2983 RMK A01 T03620156  RH  029%=      5-min Rain = 0
KSC1 060041Z 10009KT 36/16 A2983 RMK A01 T03620155  RH  029%=      5-min Rain = 0
KSC1 060042Z 09008KT 36/15 A2983 RMK A01 T03620153  RH  029%=      5-min Rain = 0
KSC1 060043Z 10007KT 36/15 A2983 RMK A01 T03620153  RH  029%=      5-min Rain = 0
KSC1 060044Z 09008KT 36/15 A2983 RMK A01 T03620152  RH  029%=      5-min Rain = 0
KSC1 060045Z 09007KT 36/15 A2983 RMK A01 T03620152  RH  029%=      5-min Rain = 0
KSC1 060046Z 09004KT 36/15 A2983 RMK A01 T03610152  RH  029%=      5-min Rain = 0
KSC1 060047Z 10008KT 36/15 A2983 RMK A01 T03610152  RH  029%=      5-min Rain = 0
KSC1 060048Z 10009KT 36/15 A2983 RMK A01 T03610153  RH  029%=      5-min Rain = 0
KSC1 060049Z 09011KT 36/16 A2983 RMK A01 T03620157  RH  030%=      5-min Rain = 0
KSC1 060050Z 08011KT 36/16 A2983 RMK A01 T03610159  RH  030%=      5-min Rain = 0
KSC1 060051Z 08007KT 36/16 A2983 RMK A01 T03590160  RH  031%=      5-min Rain = 0
KSC1 060052Z 09009KT 36/16 A2983 RMK A01 T03590160  RH  031%=      5-min Rain = 0
KSC1 060053Z 09011KT 36/16 A2983 RMK A01 T03580161  RH  031%=      5-min Rain = 0
KSC1 060054Z 09010KT 36/16 A2983 RMK A01 T03580161  RH  031%=      5-min Rain = 0
KSC1 060055Z 09008KT 36/16 A2983 RMK A01 T03570161  RH  031%=      5-min Rain = 0
KSC1 060056Z 08008KT 36/16 A2983 RMK A01 T03570162  RH  031%=      5-min Rain = 0
KSC1 060057Z 08010KT 36/16 A2983 RMK A01 T03560162  RH  032%=      5-min Rain = 0
KSC1 060058Z 08008KT 36/16 A2983 RMK A01 T03560162  RH  032%=      5-min Rain = 0
KSC1 060059Z 09009KT 36/16 A2983 RMK A01 T03550162  RH  032%=      5-min Rain = 0
KSC1 060100Z 09009KT 36/16 A2983 RMK A01 T03550162  RH  032%=      5-min Rain = 0
KSC1 060101Z 08006KT 36/16 A2983 RMK A01 T03550162  RH  032%=      5-min Rain = 0
KSC1 060102Z 08006KT 36/16 A2983 RMK A01 T03550163  RH  032%=      5-min Rain = 0
KSC1 060103Z 09005KT 36/16 A2983 RMK A01 T03550162  RH  032%=      5-min Rain = 0
KSC1 060104Z 09006KT 36/16 A2983 RMK A01 T03550163  RH  032%=      5-min Rain = 0
KSC1 060105Z 08008KT 36/16 A2983 RMK A01 T03550163  RH  032%=      5-min Rain = 0
KSC1 060106Z 08008KT 35/16 A2983 RMK A01 T03540163  RH  032%=      5-min Rain = 0
KSC1 060107Z 08007KT 35/16 A2983 RMK A01 T03540164  RH  032%=      5-min Rain = 0
KSC1 060108Z 09008KT 35/16 A2983 RMK A01 T03530164  RH  033%=      5-min Rain = 0
KSC1 060109Z 09008KT 35/17 A2983 RMK A01 T03530165  RH  033%=      5-min Rain = 0
KSC1 060110Z 08006KT 35/17 A2984 RMK A01 T03530165  RH  033%=      5-min Rain = 0
KSC1 060111Z 07005KT 35/17 A2984 RMK A01 T03530166  RH  033%=      5-min Rain = 0
KSC1 060112Z 09008KT 35/17 A2984 RMK A01 T03530166  RH  033%=      5-min Rain = 0
KSC1 060113Z 08007KT 35/17 A2984 RMK A01 T03520166  RH  033%=      5-min Rain = 0
KSC1 060114Z 08008KT 35/17 A2984 RMK A01 T03520165  RH  033%=      5-min Rain = 0
KSC1 060115Z 08008KT 35/17 A2984 RMK A01 T03520165  RH  033%=      5-min Rain = 0
KSC1 060116Z 08010KT 35/16 A2984 RMK A01 T03510164  RH  033%=      5-min Rain = 0
KSC1 060117Z 08007KT 35/17 A2984 RMK A01 T03510165  RH  033%=      5-min Rain = 0
KSC1 060118Z 08007KT 35/17 A2984 RMK A01 T03510165  RH  033%=      5-min Rain = 0
KSC1 060119Z 09008KT 35/16 A2984 RMK A01 T03510164  RH  033%=      5-min Rain = 0
KSC1 060120Z 09008KT 35/17 A2984 RMK A01 T03510165  RH  033%=      5-min Rain = 0
KSC1 060121Z 09006KT 35/17 A2984 RMK A01 T03510165  RH  033%=      5-min Rain = 0
KSC1 060122Z 08007KT 35/17 A2984 RMK A01 T03500165  RH  033%=      5-min Rain = 0
KSC1 060123Z 08009KT 35/17 A2984 RMK A01 T03500165  RH  033%=      5-min Rain = 0
KSC1 060124Z 09008KT 35/17 A2984 RMK A01 T03490165  RH  033%=      5-min Rain = 0
KSC1 060125Z 08007KT 35/17 A2984 RMK A01 T03490165  RH  033%=      5-min Rain = 0
KSC1 060126Z 08005KT 35/17 A2984 RMK A01 T03480165  RH  034%=      5-min Rain = 0
KSC1 060127Z 08006KT 35/17 A2984 RMK A01 T03480165  RH  034%=      5-min Rain = 0
KSC1 060128Z 07007KT 35/17 A2984 RMK A01 T03470166  RH  034%=      5-min Rain = 0
KSC1 060129Z 07008KT 35/17 A2984 RMK A01 T03470167  RH  034%=      5-min Rain = 0
KSC1 060130Z 07006KT 35/17 A2984 RMK A01 T03460167  RH  034%=      5-min Rain = 0
KSC1 060131Z 08007KT 35/17 A2984 RMK A01 T03460167  RH  035%=      5-min Rain = 0
KSC1 060132Z 07006KT 35/17 A2985 RMK A01 T03460167  RH  035%=      5-min Rain = 0
KSC1 060133Z 08006KT 35/17 A2985 RMK A01 T03450167  RH  035%=      5-min Rain = 0
KSC1 060134Z 07005KT 34/17 A2985 RMK A01 T03440167  RH  035%=      5-min Rain = 0
KSC1 060135Z 07006KT 34/17 A2985 RMK A01 T03440167  RH  035%=      5-min Rain = 0
KSC1 060136Z 06006KT 34/17 A2985 RMK A01 T03430167  RH  035%=      5-min Rain = 0
KSC1 060137Z 06006KT 34/17 A2985 RMK A01 T03420168  RH  036%=      5-min Rain = 0
KSC1 060138Z 06005KT 34/17 A2985 RMK A01 T03410170  RH  036%=      5-min Rain = 0
KSC1 060139Z 06005KT 34/17 A2985 RMK A01 T03400173  RH  037%=      5-min Rain = 0
KSC1 060140Z 06005KT 34/18 A2985 RMK A01 T03390176  RH  038%=      5-min Rain = 0
KSC1 060141Z 06006KT 34/18 A2985 RMK A01 T03370176  RH  038%=      5-min Rain = 0
KSC1 060142Z 06005KT 34/18 A2985 RMK A01 T03360177  RH  039%=      5-min Rain = 0
KSC1 060143Z 07007KT 34/18 A2985 RMK A01 T03350178  RH  039%=      5-min Rain = 0
KSC1 060144Z 07007KT 33/18 A2985 RMK A01 T03340177  RH  039%=      5-min Rain = 0
KSC1 060145Z 07007KT 33/18 A2985 RMK A01 T03340178  RH  039%=      5-min Rain = 0
KSC1 060146Z 07010KT 33/18 A2985 RMK A01 T03340179  RH  040%=      5-min Rain = 0
KSC1 060147Z 07008KT 33/18 A2985 RMK A01 T03340179  RH  040%=      5-min Rain = 0
KSC1 060148Z 06008KT 33/18 A2985 RMK A01 T03340179  RH  040%=      5-min Rain = 0
KSC1 060149Z 06007KT 33/18 A2985 RMK A01 T03340180  RH  040%=      5-min Rain = 0
KSC1 060150Z 07009KT 33/18 A2985 RMK A01 T03330180  RH  040%=      5-min Rain = 0
KSC1 060151Z 07007KT 33/18 A2985 RMK A01 T03330181  RH  041%=      5-min Rain = 0
KSC1 060152Z 07006KT 33/18 A2985 RMK A01 T03320181  RH  041%=      5-min Rain = 0
KSC1 060153Z 06007KT 33/18 A2986 RMK A01 T03320181  RH  041%=      5-min Rain = 0
KSC1 060154Z 06007KT 33/18 A2986 RMK A01 T03310181  RH  041%=      5-min Rain = 0
KSC1 060155Z 06007KT 33/18 A2986 RMK A01 T03310182  RH  041%=      5-min Rain = 0
KSC1 060156Z 06008KT 33/18 A2986 RMK A01 T03300182  RH  041%=      5-min Rain = 0
KSC1 060157Z 07009KT 33/18 A2986 RMK A01 T03290182  RH  042%=      5-min Rain = 0
KSC1 060158Z 06009KT 33/18 A2986 RMK A01 T03290182  RH  042%=      5-min Rain = 0
KSC1 060159Z 06008KT 33/18 A2986 RMK A01 T03290182  RH  042%=      5-min Rain = 0
KSC1 060200Z 06008KT 33/18 A2986 RMK A01 T03280182  RH  042%=      5-min Rain = 0
KSC1 060201Z 07006KT 33/18 A2986 RMK A01 T03280182  RH  042%=      5-min Rain = 0
KSC1 060202Z 06008KT 33/18 A2986 RMK A01 T03270182  RH  042%=      5-min Rain = 0
KSC1 060203Z 06007KT 33/18 A2986 RMK A01 T03270182  RH  042%=      5-min Rain = 0
KSC1 060204Z 06007KT 33/18 A2986 RMK A01 T03270183  RH  042%=      5-min Rain = 0
KSC1 060205Z 06007KT 33/18 A2986 RMK A01 T03260182  RH  042%=      5-min Rain = 0
KSC1 060206Z 06006KT 33/18 A2986 RMK A01 T03260182  RH  043%=      5-min Rain = 0
KSC1 060207Z 07007KT 33/18 A2986 RMK A01 T03250182  RH  043%=      5-min Rain = 0
KSC1 060208Z 06008KT 32/18 A2986 RMK A01 T03240182  RH  043%=      5-min Rain = 0
KSC1 060209Z 06006KT 32/18 A2986 RMK A01 T03240182  RH  043%=      5-min Rain = 0
KSC1 060210Z 06006KT 32/18 A2987 RMK A01 T03240182  RH  043%=      5-min Rain = 0
KSC1 060211Z 06006KT 32/18 A2987 RMK A01 T03240182  RH  043%=      5-min Rain = 0
KSC1 060212Z 07007KT 32/18 A2987 RMK A01 T03230182  RH  043%=      5-min Rain = 0
KSC1 060213Z 06008KT 32/18 A2987 RMK A01 T03230182  RH  043%=      5-min Rain = 0
KSC1 060214Z 06007KT 32/18 A2987 RMK A01 T03230182  RH  043%=      5-min Rain = 0
KSC1 060215Z 07006KT 32/18 A2987 RMK A01 T03220182  RH  043%=      5-min Rain = 0
KSC1 060216Z 06005KT 32/18 A2987 RMK A01 T03220182  RH  044%=      5-min Rain = 0
KSC1 060217Z 06008KT 32/18 A2987 RMK A01 T03210182  RH  044%=      5-min Rain = 0
KSC1 060218Z 06005KT 32/18 A2987 RMK A01 T03210182  RH  044%=      5-min Rain = 0
KSC1 060219Z 06007KT 32/18 A2987 RMK A01 T03210183  RH  044%=      5-min Rain = 0
KSC1 060220Z 06007KT 32/18 A2987 RMK A01 T03200182  RH  044%=      5-min Rain = 0
KSC1 060221Z 06007KT 32/18 A2987 RMK A01 T03200183  RH  044%=      5-min Rain = 0
KSC1 060222Z 06008KT 32/18 A2987 RMK A01 T03200183  RH  044%=      5-min Rain = 0
KSC1 060223Z 06007KT 32/18 A2987 RMK A01 T03190182  RH  044%=      5-min Rain = 0
KSC1 060224Z 07008KT 32/18 A2987 RMK A01 T03200183  RH  044%=      5-min Rain = 0
KSC1 060225Z 06006KT 32/18 A2987 RMK A01 T03190183  RH  044%=      5-min Rain = 0
KSC1 060226Z 07007KT 32/18 A2987 RMK A01 T03190183  RH  044%=      5-min Rain = 0
KSC1 060227Z 07006KT 32/18 A2987 RMK A01 T03190183  RH  044%=      5-min Rain = 0
KSC1 060228Z 06009KT 32/18 A2988 RMK A01 T03180182  RH  044%=      5-min Rain = 0
KSC1 060229Z 07008KT 32/18 A2988 RMK A01 T03190183  RH  044%=      5-min Rain = 0
KSC1 060230Z 07007KT 32/18 A2988 RMK A01 T03190183  RH  044%=      5-min Rain = 0
KSC1 060231Z 07006KT 32/18 A2988 RMK A01 T03180182  RH  044%=      5-min Rain = 0
KSC1 060232Z 07008KT 32/18 A2988 RMK A01 T03180182  RH  045%=      5-min Rain = 0
KSC1 060233Z 08008KT 32/18 A2988 RMK A01 T03180183  RH  045%=      5-min Rain = 0
KSC1 060234Z 07007KT 32/18 A2988 RMK A01 T03170183  RH  045%=      5-min Rain = 0
KSC1 060235Z 07006KT 32/18 A2988 RMK A01 T03170183  RH  045%=      5-min Rain = 0
KSC1 060236Z 08007KT 32/18 A2988 RMK A01 T03160183  RH  045%=      5-min Rain = 0
KSC1 060237Z 08006KT 32/18 A2988 RMK A01 T03160183  RH  045%=      5-min Rain = 0
KSC1 060238Z 08006KT 32/18 A2988 RMK A01 T03160183  RH  045%=      5-min Rain = 0
KSC1 060239Z 08007KT 32/18 A2988 RMK A01 T03150183  RH  045%=      5-min Rain = 0
KSC1 060240Z 08007KT 32/18 A2988 RMK A01 T03150183  RH  045%=      5-min Rain = 0
KSC1 060241Z 08007KT 31/18 A2988 RMK A01 T03140183  RH  046%=      5-min Rain = 0
KSC1 060242Z 08008KT 31/18 A2988 RMK A01 T03140183  RH  046%=      5-min Rain = 0
KSC1 060243Z 08008KT 31/18 A2988 RMK A01 T03130183  RH  046%=      5-min Rain = 0
KSC1 060244Z 07011KT 31/19 A2988 RMK A01 T03130185  RH  046%=      5-min Rain = 0
KSC1 060245Z 08010KT 31/19 A2988 RMK A01 T03140186  RH  047%=      5-min Rain = 0
KSC1 060246Z 08011KT 31/19 A2988 RMK A01 T03140186  RH  047%=      5-min Rain = 0
KSC1 060247Z 08012G17KT 31/19 A2988 RMK A01 T03140187  RH  047%=      5-min Rain = 0
KSC1 060248Z 08010KT 32/19 A2988 RMK A01 T03150188  RH  047%=      5-min Rain = 0
KSC1 060249Z 08011KT 31/19 A2988 RMK A01 T03140188  RH  047%=      5-min Rain = 0
KSC1 060250Z 08008KT 31/19 A2988 RMK A01 T03140188  RH  047%=      5-min Rain = 0
KSC1 060251Z 07012KT 31/19 A2988 RMK A01 T03130188  RH  047%=      5-min Rain = 0
KSC1 060252Z 08009KT 31/19 A2988 RMK A01 T03130188  RH  048%=      5-min Rain = 0
KSC1 060253Z 08009KT 31/19 A2988 RMK A01 T03120188  RH  048%=      5-min Rain = 0
KSC1 060254Z 08009G14KT 31/19 A2988 RMK A01 T03120189  RH  048%=      5-min Rain = 0
KSC1 060255Z 08008KT 31/19 A2988 RMK A01 T03120188  RH  048%=      5-min Rain = 0
KSC1 060256Z 08010KT 31/19 A2988 RMK A01 T03110189  RH  048%=      5-min Rain = 0
KSC1 060257Z 08010KT 31/19 A2988 RMK A01 T03110189  RH  048%=      5-min Rain = 0
KSC1 060258Z 07008G13KT 31/19 A2988 RMK A01 T03110189  RH  048%=      5-min Rain = 0
KSC1 060259Z 08010KT 31/19 A2988 RMK A01 T03100189  RH  048%=      5-min Rain = 0
KSC1 060300Z 07009KT 31/19 A2988 RMK A01 T03100189  RH  048%=      5-min Rain = 0
KSC1 060301Z 08009KT 31/19 A2988 RMK A01 T03100189  RH  049%=      5-min Rain = 0
KSC1 060302Z 08012KT 31/19 A2988 RMK A01 T03100189  RH  049%=      5-min Rain = 0
KSC1 060303Z 08009KT 31/19 A2988 RMK A01 T03090189  RH  049%=      5-min Rain = 0
KSC1 060304Z 07009KT 31/19 A2988 RMK A01 T03090189  RH  049%=      5-min Rain = 0
KSC1 060305Z 07010KT 31/19 A2988 RMK A01 T03090189  RH  049%=      5-min Rain = 0
KSC1 060306Z 08011KT 31/19 A2988 RMK A01 T03080189  RH  049%=      5-min Rain = 0
KSC1 060307Z 08008KT 31/19 A2989 RMK A01 T03080189  RH  049%=      5-min Rain = 0
KSC1 060308Z 08009KT 31/19 A2989 RMK A01 T03080189  RH  049%=      5-min Rain = 0
KSC1 060309Z 08008KT 31/19 A2989 RMK A01 T03080189  RH  049%=      5-min Rain = 0
KSC1 060310Z 08010G15KT 31/19 A2989 RMK A01 T03070189  RH  049%=      5-min Rain = 0
KSC1 060311Z 07009KT 31/19 A2989 RMK A01 T03070189  RH  049%=      5-min Rain = 0
KSC1 060312Z 07010KT 31/19 A2989 RMK A01 T03070189  RH  049%=      5-min Rain = 0
KSC1 060313Z 07009KT 31/19 A2989 RMK A01 T03070189  RH  050%=      5-min Rain = 0
KSC1 060314Z 08011KT 31/19 A2989 RMK A01 T03060190  RH  050%=      5-min Rain = 0
KSC1 060315Z 07010KT 31/19 A2989 RMK A01 T03060190  RH  050%=      5-min Rain = 0
KSC1 060316Z 08007KT 31/19 A2989 RMK A01 T03060191  RH  050%=      5-min Rain = 0
KSC1 060317Z 08006KT 31/19 A2989 RMK A01 T03060191  RH  050%=      5-min Rain = 0
KSC1 060318Z 08007KT 31/19 A2989 RMK A01 T03050191  RH  050%=      5-min Rain = 0
KSC1 060319Z 08009KT 31/19 A2989 RMK A01 T03050191  RH  051%=      5-min Rain = 0
KSC1 060320Z 07007KT 31/19 A2989 RMK A01 T03050191  RH  051%=      5-min Rain = 0
KSC1 060321Z 08006KT 30/19 A2989 RMK A01 T03040191  RH  051%=      5-min Rain = 0
KSC1 060322Z 07008KT 30/19 A2989 RMK A01 T03040191  RH  051%=      5-min Rain = 0
KSC1 060323Z 07007KT 30/19 A2989 RMK A01 T03040192  RH  051%=      5-min Rain = 0
KSC1 060324Z 07007KT 30/19 A2989 RMK A01 T03030192  RH  051%=      5-min Rain = 0
KSC1 060325Z 06008KT 30/19 A2989 RMK A01 T03030192  RH  052%=      5-min Rain = 0
KSC1 060326Z 07008KT 30/19 A2989 RMK A01 T03020192  RH  052%=      5-min Rain = 0
KSC1 060327Z 07008KT 30/19 A2989 RMK A01 T03030192  RH  052%=      5-min Rain = 0
KSC1 060328Z 07007KT 30/19 A2989 RMK A01 T03020192  RH  052%=      5-min Rain = 0
KSC1 060329Z 08008KT 30/19 A2989 RMK A01 T03020192  RH  052%=      5-min Rain = 0
KSC1 060330Z 07007KT 30/19 A2989 RMK A01 T03020193  RH  052%=      5-min Rain = 0
KSC1 060331Z 08007KT 30/19 A2989 RMK A01 T03010193  RH  052%=      5-min Rain = 0
KSC1 060332Z 08006KT 30/19 A2989 RMK A01 T03010193  RH  052%=      5-min Rain = 0
KSC1 060333Z 07006KT 30/19 A2989 RMK A01 T03000193  RH  053%=      5-min Rain = 0
KSC1 060334Z 07008KT 30/19 A2989 RMK A01 T03000193  RH  053%=      5-min Rain = 0
KSC1 060335Z 07006KT 30/19 A2989 RMK A01 T03000194  RH  053%=      5-min Rain = 0
KSC1 060336Z 07005KT 30/19 A2989 RMK A01 T03000194  RH  053%=      5-min Rain = 0
KSC1 060337Z 07009KT 30/20 A2989 RMK A01 T02990195  RH  053%=      5-min Rain = 0
KSC1 060338Z 07007KT 30/20 A2989 RMK A01 T03000195  RH  054%=      5-min Rain = 0
KSC1 060339Z 08007KT 30/20 A2989 RMK A01 T03000196  RH  054%=      5-min Rain = 0
KSC1 060340Z 07007KT 30/20 A299 RMK A01 T02990196  RH  054%=      5-min Rain = 0
KSC1 060341Z 08008KT 30/20 A299 RMK A01 T02980196  RH  054%=      5-min Rain = 0
KSC1 060342Z 08009KT 30/20 A299 RMK A01 T02980197  RH  054%=      5-min Rain = 0
KSC1 060343Z 08007KT 30/20 A299 RMK A01 T02980197  RH  055%=      5-min Rain = 0
KSC1 060344Z 08006KT 30/20 A299 RMK A01 T02980198  RH  055%=      5-min Rain = 0
KSC1 060345Z 09007KT 30/20 A299 RMK A01 T02980198  RH  055%=      5-min Rain = 0
KSC1 060346Z 08008G13KT 30/20 A299 RMK A01 T02970199  RH  055%=      5-min Rain = 0
KSC1 060347Z 08007KT 30/20 A299 RMK A01 T02970199  RH  056%=      5-min Rain = 0
KSC1 060348Z 08007KT 30/20 A299 RMK A01 T02980200  RH  056%=      5-min Rain = 0
KSC1 060349Z 10009KT 30/20 A299 RMK A01 T02980200  RH  056%=      5-min Rain = 0
KSC1 060350Z 11006KT 30/20 A299 RMK A01 T02980201  RH  056%=      5-min Rain = 0
KSC1 060351Z 16005KT 30/20 A299 RMK A01 T02970200  RH  056%=      5-min Rain = 0
KSC1 060352Z 19007KT 30/20 A2991 RMK A01 T02970199  RH  056%=      5-min Rain = 0
KSC1 060353Z 19009KT 30/20 A2991 RMK A01 T02970199  RH  056%=      5-min Rain = 0
KSC1 060354Z 20012KT 30/20 A2992 RMK A01 T02970197  RH  055%=      5-min Rain = 0
KSC1 060355Z 20008KT 30/19 A2992 RMK A01 T02950187  RH  052%=      5-min Rain = 0
KSC1 060356Z 21012KT 29/18 A2992 RMK A01 T02910181  RH  052%=      5-min Rain = 0
KSC1 060357Z 21013KT 29/18 A2992 RMK A01 T02850178  RH  052%=      5-min Rain = 0
KSC1 060358Z 21013KT 28/18 A2993 RMK A01 T02810177  RH  053%=      5-min Rain = 0
KSC1 060359Z 22010KT 28/18 A2993 RMK A01 T02790178  RH  054%=      5-min Rain = 0
KSC1 060400Z 23008G13KT 28/18 A2994 RMK A01 T02780178  RH  055%=      5-min Rain = 0
KSC1 060401Z 22010KT 28/18 A2994 RMK A01 T02770178  RH  055%=      5-min Rain = 0
KSC1 060402Z 21013KT 28/18 A2994 RMK A01 T02770178  RH  055%=      5-min Rain = 0
KSC1 060403Z 20010G15KT 28/18 A2995 RMK A01 T02760177  RH  055%=      5-min Rain = 0
KSC1 060404Z 20014KT 27/18 A2995 RMK A01 T02740177  RH  055%=      5-min Rain = 0
KSC1 060405Z 22011KT 27/18 A2995 RMK A01 T02720176  RH  056%=      5-min Rain = 0
KSC1 060406Z 23007KT 27/18 A2995 RMK A01 T02710176  RH  056%=      5-min Rain = 0
KSC1 060407Z 22009KT 27/18 A2995 RMK A01 T02700176  RH  057%=      5-min Rain = 0
KSC1 060408Z 20009KT 27/18 A2995 RMK A01 T02690177  RH  057%=      5-min Rain = 0
KSC1 060409Z 20009KT 27/18 A2995 RMK A01 T02690177  RH  057%=      5-min Rain = 0
KSC1 060410Z 21010KT 27/18 A2995 RMK A01 T02680176  RH  057%=      5-min Rain = 0
KSC1 060411Z 20009KT 27/18 A2995 RMK A01 T02690175  RH  057%=      5-min Rain = 0
KSC1 060412Z 20011KT 27/18 A2995 RMK A01 T02690175  RH  056%=      5-min Rain = 0
KSC1 060413Z 20013KT 27/17 A2995 RMK A01 T02690174  RH  056%=      5-min Rain = 0
KSC1 060414Z 20012KT 27/17 A2995 RMK A01 T02690173  RH  056%=      5-min Rain = 0
KSC1 060415Z 20011KT 27/17 A2995 RMK A01 T02690172  RH  055%=      5-min Rain = 0
KSC1 060416Z 18012KT 27/17 A2995 RMK A01 T02690172  RH  055%=      5-min Rain = 0
KSC1 060417Z 19013KT 27/17 A2995 RMK A01 T02700172  RH  055%=      5-min Rain = 0
KSC1 060418Z 18013KT 27/17 A2995 RMK A01 T02710170  RH  054%=      5-min Rain = 0
KSC1 060419Z 18011KT 27/17 A2995 RMK A01 T02720170  RH  054%=      5-min Rain = 0
KSC1 060420Z 19008KT 27/17 A2996 RMK A01 T02730169  RH  053%=      5-min Rain = 0
KSC1 060421Z 19009KT 27/17 A2996 RMK A01 T02740169  RH  053%=      5-min Rain = 0
KSC1 060422Z 20008KT 28/17 A2996 RMK A01 T02750168  RH  052%=      5-min Rain = 0
KSC1 060423Z 19008KT 28/17 A2996 RMK A01 T02760167  RH  051%=      5-min Rain = 0
KSC1 060424Z 19005KT 28/17 A2996 RMK A01 T02770168  RH  051%=      5-min Rain = 0
KSC1 060425Z 20006KT 28/17 A2996 RMK A01 T02780169  RH  052%=      5-min Rain = 0
KSC1 060426Z 23006KT 28/18 A2997 RMK A01 T02770175  RH  054%=      5-min Rain = 0
KSC1 060427Z 27009KT 27/18 A2997 RMK A01 T02730178  RH  056%=      5-min Rain = 0.01
KSC1 060428Z 29012KT 27/18 A2998 RMK A01 T02670184  RH  061%=      5-min Rain = 0.02
KSC1 060429Z 31010G16KT 26/19 A2999 RMK A01 T02560189  RH  067%=      5-min Rain = 0.02
KSC1 060430Z 29008G13KT 24/19 A2998 RMK A01 T02420190  RH  073%=      5-min Rain = 0.01
KSC1 060431Z 29009G14KT 23/19 A2998 RMK A01 T02330191  RH  077%=      5-min Rain = 0.02
KSC1 060432Z 28011G16KT 23/19 A2998 RMK A01 T02290191  RH  079%=      5-min Rain = 0.01
KSC1 060433Z 28015KT 23/19 A2998 RMK A01 T02280192  RH  080%=      5-min Rain = 0.01
KSC1 060434Z 28014G21KT 23/19 A2998 RMK A01 T02280191  RH  080%=      5-min Rain = 0.01
KSC1 060435Z 28016KT 23/19 A2998 RMK A01 T02300189  RH  078%=      5-min Rain = 0.01
KSC1 060436Z 29016G22KT 23/19 A2998 RMK A01 T02320192  RH  078%=      5-min Rain = 0.01
KSC1 060437Z 29014G20KT 23/19 A2998 RMK A01 T02300193  RH  080%=      5-min Rain = 0.01
KSC1 060438Z 29012KT 23/20 A2999 RMK A01 T02260195  RH  083%=      5-min Rain = 0
KSC1 060439Z 29012G19KT 22/20 A2999 RMK A01 T02220198  RH  086%=      5-min Rain = 0
KSC1 060440Z 30012KT 22/20 A2999 RMK A01 T02190203  RH  090%=      5-min Rain = 0
KSC1 060441Z 30013G18KT 22/21 A2999 RMK A01 T02180206  RH  093%=      5-min Rain = 0.01
KSC1 060442Z 30012G17KT 22/21 A2999 RMK A01 T02160210  RH  096%=      5-min Rain = 0
KSC1 060443Z 31011G18KT 22/21 A30 RMK A01 T02150213  RH  099%=      5-min Rain = 0.01
KSC1 060444Z 31012G18KT 21/21 A2999 RMK A01 T02130213  RH  100%=      5-min Rain = 0
KSC1 060445Z 30010G15KT 21/21 A2999 RMK A01 T02120212  RH  100%=      5-min Rain = 0.01
KSC1 060446Z 31008G14KT 21/21 A2999 RMK A01 T02110212  RH  100%=      5-min Rain = 0
KSC1 060447Z 30009G14KT 21/21 A2999 RMK A01 T02110211  RH  100%=      5-min Rain = 0
KSC1 060448Z 31012G18KT 21/21 A2999 RMK A01 T02110211  RH  100%=      5-min Rain = 0
KSC1 060449Z 31011KT 21/21 A2999 RMK A01 T02100210  RH  100%=      5-min Rain = 0.01
KSC1 060450Z 31011G16KT 21/21 A2999 RMK A01 T02100211  RH  100%=      5-min Rain = 0
KSC1 060451Z 30009G14KT 21/21 A2999 RMK A01 T02110211  RH  100%=      5-min Rain = 0
KSC1 060452Z 31010KT 21/21 A2999 RMK A01 T02110211  RH  100%=      5-min Rain = 0
KSC1 060453Z 30009G14KT 21/21 A30 RMK A01 T02110211  RH  100%=      5-min Rain = 0
KSC1 060454Z 29013KT 21/21 A30 RMK A01 T02110211  RH  100%=      5-min Rain = 0
KSC1 060455Z 29014KT 21/21 A3001 RMK A01 T02100210  RH  100%=      5-min Rain = 0.01
KSC1 060456Z 28013G18KT 21/21 A3001 RMK A01 T02100210  RH  100%=      5-min Rain = 0
KSC1 060457Z 29012KT 21/21 A3001 RMK A01 T02090210  RH  100%=      5-min Rain = 0
KSC1 060458Z 29015G21KT 21/21 A3001 RMK A01 T02090209  RH  100%=      5-min Rain = 0.01
KSC1 060459Z 29018G23KT 21/21 A3001 RMK A01 T02080208  RH  100%=      5-min Rain = 0

Page generated in 0.0776 seconds.